<?xml version="1.0" encoding="UTF-8" standalone="no" ?>
<gpx xmlns="http://www.topografix.com/GPX/1/1" xmlns:xsi="http://www.w3.org/2001/XMLSchema-instance" xsi:schemaLocation="http://www.topografix.com/GPX/1/1 http://www.topografix.com/GPX/1/1/gpx.xsd" version="1.1" creator="VisuGPX - https://www.visugpx.com">
  <metadata>
    <name>Bassanel près d\'Olonzac</name>
    <desc><![CDATA[Le temps est couvert Pierrot a décidé une courte promenade près de chez nous ...
Le rendez vous est au bord du canal à Bassanel. Le parcours commence dans le bois de pins et débouche sur l\'écluse de Pech-laurier. Des escaliers et un balcon pour profiter du panorama sur le lac des aiguilles. Un petit tour facile et bien aménagé.]]></desc>
  </metadata>
  <trk>
    <name><![CDATA[Tracé 002]]></name>
    <trkseg>
      <trkpt lat="43.26231" lon="2.75061">
        <ele>50.13</ele>
        <time>2011-05-30T11:47:52Z</time>
      </trkpt>
      <trkpt lat="43.26224" lon="2.75051">
        <ele>49.65</ele>
        <time>2011-05-30T11:48:01Z</time>
      </trkpt>
      <trkpt lat="43.26214" lon="2.75047">
        <ele>48.68</ele>
        <time>2011-05-30T11:48:10Z</time>
      </trkpt>
      <trkpt lat="43.26209" lon="2.75047">
        <ele>48.2</ele>
        <time>2011-05-30T11:48:15Z</time>
      </trkpt>
      <trkpt lat="43.26195" lon="2.75043">
        <ele>47.72</ele>
        <time>2011-05-30T11:48:28Z</time>
      </trkpt>
      <trkpt lat="43.26187" lon="2.7504">
        <ele>47.72</ele>
        <time>2011-05-30T11:48:37Z</time>
      </trkpt>
      <trkpt lat="43.26184" lon="2.75035">
        <ele>47.72</ele>
        <time>2011-05-30T11:48:41Z</time>
      </trkpt>
      <trkpt lat="43.26178" lon="2.75026">
        <ele>47.72</ele>
        <time>2011-05-30T11:48:50Z</time>
      </trkpt>
      <trkpt lat="43.26176" lon="2.75021">
        <ele>48.2</ele>
        <time>2011-05-30T11:48:54Z</time>
      </trkpt>
      <trkpt lat="43.26176" lon="2.75018">
        <ele>47.72</ele>
        <time>2011-05-30T11:48:56Z</time>
      </trkpt>
      <trkpt lat="43.26173" lon="2.75012">
        <ele>47.72</ele>
        <time>2011-05-30T11:49:01Z</time>
      </trkpt>
      <trkpt lat="43.26164" lon="2.74997">
        <ele>47.24</ele>
        <time>2011-05-30T11:49:13Z</time>
      </trkpt>
      <trkpt lat="43.26163" lon="2.74994">
        <ele>47.24</ele>
        <time>2011-05-30T11:49:15Z</time>
      </trkpt>
      <trkpt lat="43.2616" lon="2.74993">
        <ele>46.76</ele>
        <time>2011-05-30T11:49:18Z</time>
      </trkpt>
      <trkpt lat="43.26156" lon="2.74991">
        <ele>46.28</ele>
        <time>2011-05-30T11:49:25Z</time>
      </trkpt>
      <trkpt lat="43.26153" lon="2.7499">
        <ele>46.28</ele>
        <time>2011-05-30T11:49:28Z</time>
      </trkpt>
      <trkpt lat="43.26148" lon="2.74982">
        <ele>45.8</ele>
        <time>2011-05-30T11:49:42Z</time>
      </trkpt>
      <trkpt lat="43.26148" lon="2.74982">
        <ele>46.28</ele>
        <time>2011-05-30T11:49:58Z</time>
      </trkpt>
      <trkpt lat="43.26149" lon="2.74981">
        <ele>45.8</ele>
        <time>2011-05-30T11:50:17Z</time>
      </trkpt>
      <trkpt lat="43.26149" lon="2.74981">
        <ele>45.32</ele>
        <time>2011-05-30T11:50:34Z</time>
      </trkpt>
      <trkpt lat="43.26149" lon="2.74981">
        <ele>45.8</ele>
        <time>2011-05-30T11:50:56Z</time>
      </trkpt>
      <trkpt lat="43.26145" lon="2.74981">
        <ele>45.32</ele>
        <time>2011-05-30T11:51:07Z</time>
      </trkpt>
      <trkpt lat="43.26139" lon="2.74984">
        <ele>45.8</ele>
        <time>2011-05-30T11:51:14Z</time>
      </trkpt>
      <trkpt lat="43.26133" lon="2.74988">
        <ele>45.8</ele>
        <time>2011-05-30T11:51:29Z</time>
      </trkpt>
      <trkpt lat="43.26133" lon="2.74987">
        <ele>46.28</ele>
        <time>2011-05-30T11:51:33Z</time>
      </trkpt>
      <trkpt lat="43.26129" lon="2.74978">
        <ele>45.32</ele>
        <time>2011-05-30T11:51:46Z</time>
      </trkpt>
      <trkpt lat="43.2613" lon="2.74976">
        <ele>45.32</ele>
        <time>2011-05-30T11:52:05Z</time>
      </trkpt>
      <trkpt lat="43.26132" lon="2.74978">
        <ele>46.28</ele>
        <time>2011-05-30T11:52:16Z</time>
      </trkpt>
      <trkpt lat="43.26131" lon="2.7498">
        <ele>46.76</ele>
        <time>2011-05-30T11:52:18Z</time>
      </trkpt>
      <trkpt lat="43.2611" lon="2.74992">
        <ele>47.24</ele>
        <time>2011-05-30T11:52:33Z</time>
      </trkpt>
      <trkpt lat="43.26092" lon="2.75001">
        <ele>47.24</ele>
        <time>2011-05-30T11:52:46Z</time>
      </trkpt>
      <trkpt lat="43.26091" lon="2.75002">
        <ele>47.24</ele>
        <time>2011-05-30T11:52:47Z</time>
      </trkpt>
      <trkpt lat="43.26086" lon="2.75006">
        <ele>47.72</ele>
        <time>2011-05-30T11:52:52Z</time>
      </trkpt>
      <trkpt lat="43.26086" lon="2.75019">
        <ele>48.2</ele>
        <time>2011-05-30T11:53:04Z</time>
      </trkpt>
      <trkpt lat="43.26088" lon="2.75026">
        <ele>49.16</ele>
        <time>2011-05-30T11:53:10Z</time>
      </trkpt>
      <trkpt lat="43.2609" lon="2.75033">
        <ele>51.09</ele>
        <time>2011-05-30T11:53:17Z</time>
      </trkpt>
      <trkpt lat="43.26085" lon="2.75045">
        <ele>53.97</ele>
        <time>2011-05-30T11:53:30Z</time>
      </trkpt>
      <trkpt lat="43.26083" lon="2.75047">
        <ele>55.89</ele>
        <time>2011-05-30T11:53:40Z</time>
      </trkpt>
      <trkpt lat="43.26081" lon="2.75051">
        <ele>57.82</ele>
        <time>2011-05-30T11:53:51Z</time>
      </trkpt>
      <trkpt lat="43.26077" lon="2.7506">
        <ele>59.74</ele>
        <time>2011-05-30T11:54:11Z</time>
      </trkpt>
      <trkpt lat="43.26076" lon="2.75065">
        <ele>61.66</ele>
        <time>2011-05-30T11:54:29Z</time>
      </trkpt>
      <trkpt lat="43.26076" lon="2.75076">
        <ele>64.55</ele>
        <time>2011-05-30T11:54:42Z</time>
      </trkpt>
      <trkpt lat="43.26075" lon="2.75083">
        <ele>65.51</ele>
        <time>2011-05-30T11:54:54Z</time>
      </trkpt>
      <trkpt lat="43.26076" lon="2.75085">
        <ele>65.99</ele>
        <time>2011-05-30T11:55:10Z</time>
      </trkpt>
      <trkpt lat="43.26073" lon="2.75092">
        <ele>66.47</ele>
        <time>2011-05-30T11:55:28Z</time>
      </trkpt>
      <trkpt lat="43.2607" lon="2.75101">
        <ele>67.43</ele>
        <time>2011-05-30T11:55:40Z</time>
      </trkpt>
      <trkpt lat="43.26065" lon="2.75111">
        <ele>68.87</ele>
        <time>2011-05-30T11:55:54Z</time>
      </trkpt>
      <trkpt lat="43.26067" lon="2.75123">
        <ele>69.35</ele>
        <time>2011-05-30T11:56:08Z</time>
      </trkpt>
      <trkpt lat="43.26063" lon="2.75123">
        <ele>69.35</ele>
        <time>2011-05-30T11:56:23Z</time>
      </trkpt>
      <trkpt lat="43.26056" lon="2.75125">
        <ele>68.87</ele>
        <time>2011-05-30T11:56:36Z</time>
      </trkpt>
      <trkpt lat="43.26055" lon="2.75126">
        <ele>68.87</ele>
        <time>2011-05-30T11:56:37Z</time>
      </trkpt>
      <trkpt lat="43.2605" lon="2.75137">
        <ele>70.79</ele>
        <time>2011-05-30T11:56:51Z</time>
      </trkpt>
      <trkpt lat="43.26045" lon="2.75145">
        <ele>72.72</ele>
        <time>2011-05-30T11:57:05Z</time>
      </trkpt>
      <trkpt lat="43.26039" lon="2.7515">
        <ele>74.64</ele>
        <time>2011-05-30T11:57:19Z</time>
      </trkpt>
      <trkpt lat="43.26034" lon="2.75151">
        <ele>76.08</ele>
        <time>2011-05-30T11:57:32Z</time>
      </trkpt>
      <trkpt lat="43.26031" lon="2.7515">
        <ele>78</ele>
        <time>2011-05-30T11:57:47Z</time>
      </trkpt>
      <trkpt lat="43.2602" lon="2.75152">
        <ele>78.97</ele>
        <time>2011-05-30T11:57:58Z</time>
      </trkpt>
      <trkpt lat="43.26008" lon="2.75159">
        <ele>81.37</ele>
        <time>2011-05-30T11:58:13Z</time>
      </trkpt>
      <trkpt lat="43.26005" lon="2.75167">
        <ele>83.77</ele>
        <time>2011-05-30T11:58:26Z</time>
      </trkpt>
      <trkpt lat="43.25998" lon="2.75174">
        <ele>85.21</ele>
        <time>2011-05-30T11:58:41Z</time>
      </trkpt>
      <trkpt lat="43.25994" lon="2.7518">
        <ele>87.14</ele>
        <time>2011-05-30T11:58:52Z</time>
      </trkpt>
      <trkpt lat="43.2599" lon="2.75187">
        <ele>88.58</ele>
        <time>2011-05-30T11:59:06Z</time>
      </trkpt>
      <trkpt lat="43.25988" lon="2.75198">
        <ele>90.98</ele>
        <time>2011-05-30T11:59:19Z</time>
      </trkpt>
      <trkpt lat="43.25984" lon="2.75209">
        <ele>92.42</ele>
        <time>2011-05-30T11:59:33Z</time>
      </trkpt>
      <trkpt lat="43.25978" lon="2.75219">
        <ele>93.87</ele>
        <time>2011-05-30T11:59:46Z</time>
      </trkpt>
      <trkpt lat="43.25975" lon="2.75225">
        <ele>95.31</ele>
        <time>2011-05-30T11:59:58Z</time>
      </trkpt>
      <trkpt lat="43.25975" lon="2.75233">
        <ele>97.23</ele>
        <time>2011-05-30T12:00:12Z</time>
      </trkpt>
      <trkpt lat="43.25977" lon="2.7524">
        <ele>97.71</ele>
        <time>2011-05-30T12:00:25Z</time>
      </trkpt>
      <trkpt lat="43.25978" lon="2.75244">
        <ele>98.67</ele>
        <time>2011-05-30T12:00:37Z</time>
      </trkpt>
      <trkpt lat="43.25977" lon="2.75246">
        <ele>99.63</ele>
        <time>2011-05-30T12:00:49Z</time>
      </trkpt>
      <trkpt lat="43.25977" lon="2.75247">
        <ele>100.11</ele>
        <time>2011-05-30T12:01:07Z</time>
      </trkpt>
      <trkpt lat="43.25976" lon="2.75249">
        <ele>100.11</ele>
        <time>2011-05-30T12:01:19Z</time>
      </trkpt>
      <trkpt lat="43.25976" lon="2.7525">
        <ele>101.08</ele>
        <time>2011-05-30T12:01:48Z</time>
      </trkpt>
      <trkpt lat="43.25975" lon="2.75252">
        <ele>101.08</ele>
        <time>2011-05-30T12:02:06Z</time>
      </trkpt>
      <trkpt lat="43.25975" lon="2.75252">
        <ele>101.08</ele>
        <time>2011-05-30T12:02:18Z</time>
      </trkpt>
      <trkpt lat="43.25976" lon="2.75253">
        <ele>101.56</ele>
        <time>2011-05-30T12:02:35Z</time>
      </trkpt>
      <trkpt lat="43.25972" lon="2.75255">
        <ele>102.04</ele>
        <time>2011-05-30T12:02:47Z</time>
      </trkpt>
      <trkpt lat="43.25959" lon="2.75259">
        <ele>102.52</ele>
        <time>2011-05-30T12:03:00Z</time>
      </trkpt>
      <trkpt lat="43.25949" lon="2.7527">
        <ele>102.52</ele>
        <time>2011-05-30T12:03:16Z</time>
      </trkpt>
      <trkpt lat="43.25942" lon="2.75281">
        <ele>103</ele>
        <time>2011-05-30T12:03:33Z</time>
      </trkpt>
      <trkpt lat="43.25937" lon="2.7529">
        <ele>103.48</ele>
        <time>2011-05-30T12:03:45Z</time>
      </trkpt>
      <trkpt lat="43.25932" lon="2.75299">
        <ele>103.48</ele>
        <time>2011-05-30T12:03:52Z</time>
      </trkpt>
      <trkpt lat="43.25927" lon="2.7531">
        <ele>103.48</ele>
        <time>2011-05-30T12:04:01Z</time>
      </trkpt>
      <trkpt lat="43.25917" lon="2.75321">
        <ele>104.44</ele>
        <time>2011-05-30T12:04:16Z</time>
      </trkpt>
      <trkpt lat="43.25904" lon="2.75328">
        <ele>105.88</ele>
        <time>2011-05-30T12:04:31Z</time>
      </trkpt>
      <trkpt lat="43.25899" lon="2.75339">
        <ele>107.81</ele>
        <time>2011-05-30T12:04:46Z</time>
      </trkpt>
      <trkpt lat="43.25895" lon="2.75348">
        <ele>110.69</ele>
        <time>2011-05-30T12:05:01Z</time>
      </trkpt>
      <trkpt lat="43.25892" lon="2.75358">
        <ele>112.13</ele>
        <time>2011-05-30T12:05:14Z</time>
      </trkpt>
      <trkpt lat="43.2589" lon="2.75368">
        <ele>114.05</ele>
        <time>2011-05-30T12:05:28Z</time>
      </trkpt>
      <trkpt lat="43.25884" lon="2.75379">
        <ele>115.5</ele>
        <time>2011-05-30T12:05:41Z</time>
      </trkpt>
      <trkpt lat="43.25877" lon="2.75384">
        <ele>116.46</ele>
        <time>2011-05-30T12:05:55Z</time>
      </trkpt>
      <trkpt lat="43.2587" lon="2.75389">
        <ele>117.42</ele>
        <time>2011-05-30T12:06:07Z</time>
      </trkpt>
      <trkpt lat="43.25861" lon="2.75399">
        <ele>117.9</ele>
        <time>2011-05-30T12:06:22Z</time>
      </trkpt>
      <trkpt lat="43.25856" lon="2.7541">
        <ele>119.82</ele>
        <time>2011-05-30T12:06:34Z</time>
      </trkpt>
      <trkpt lat="43.25855" lon="2.75413">
        <ele>119.34</ele>
        <time>2011-05-30T12:06:37Z</time>
      </trkpt>
      <trkpt lat="43.25855" lon="2.75422">
        <ele>121.26</ele>
        <time>2011-05-30T12:06:50Z</time>
      </trkpt>
      <trkpt lat="43.25856" lon="2.75435">
        <ele>121.74</ele>
        <time>2011-05-30T12:07:05Z</time>
      </trkpt>
      <trkpt lat="43.25857" lon="2.75446">
        <ele>123.67</ele>
        <time>2011-05-30T12:07:18Z</time>
      </trkpt>
      <trkpt lat="43.25857" lon="2.75454">
        <ele>125.59</ele>
        <time>2011-05-30T12:07:32Z</time>
      </trkpt>
      <trkpt lat="43.25853" lon="2.7546">
        <ele>127.99</ele>
        <time>2011-05-30T12:07:48Z</time>
      </trkpt>
      <trkpt lat="43.25848" lon="2.75463">
        <ele>129.43</ele>
        <time>2011-05-30T12:08:04Z</time>
      </trkpt>
      <trkpt lat="43.25842" lon="2.75471">
        <ele>131.84</ele>
        <time>2011-05-30T12:08:18Z</time>
      </trkpt>
      <trkpt lat="43.25833" lon="2.75479">
        <ele>131.36</ele>
        <time>2011-05-30T12:08:33Z</time>
      </trkpt>
      <trkpt lat="43.25825" lon="2.75482">
        <ele>131.84</ele>
        <time>2011-05-30T12:08:45Z</time>
      </trkpt>
      <trkpt lat="43.25815" lon="2.75486">
        <ele>131.36</ele>
        <time>2011-05-30T12:09:00Z</time>
      </trkpt>
      <trkpt lat="43.25814" lon="2.75487">
        <ele>131.84</ele>
        <time>2011-05-30T12:09:01Z</time>
      </trkpt>
      <trkpt lat="43.25809" lon="2.75491">
        <ele>131.36</ele>
        <time>2011-05-30T12:09:07Z</time>
      </trkpt>
      <trkpt lat="43.25805" lon="2.75495">
        <ele>131.84</ele>
        <time>2011-05-30T12:09:12Z</time>
      </trkpt>
      <trkpt lat="43.25802" lon="2.755">
        <ele>131.36</ele>
        <time>2011-05-30T12:09:18Z</time>
      </trkpt>
      <trkpt lat="43.25797" lon="2.75508">
        <ele>130.88</ele>
        <time>2011-05-30T12:09:26Z</time>
      </trkpt>
      <trkpt lat="43.25796" lon="2.75512">
        <ele>130.4</ele>
        <time>2011-05-30T12:09:29Z</time>
      </trkpt>
      <trkpt lat="43.25793" lon="2.75517">
        <ele>130.88</ele>
        <time>2011-05-30T12:09:46Z</time>
      </trkpt>
      <trkpt lat="43.2579" lon="2.75514">
        <ele>130.88</ele>
        <time>2011-05-30T12:09:59Z</time>
      </trkpt>
      <trkpt lat="43.25784" lon="2.75514">
        <ele>128.95</ele>
        <time>2011-05-30T12:10:11Z</time>
      </trkpt>
      <trkpt lat="43.25784" lon="2.75514">
        <ele>128.95</ele>
        <time>2011-05-30T12:10:16Z</time>
      </trkpt>
      <trkpt lat="43.25781" lon="2.75514">
        <ele>129.43</ele>
        <time>2011-05-30T12:10:19Z</time>
      </trkpt>
      <trkpt lat="43.25775" lon="2.75513">
        <ele>128.47</ele>
        <time>2011-05-30T12:10:29Z</time>
      </trkpt>
      <trkpt lat="43.25774" lon="2.75513">
        <ele>127.03</ele>
        <time>2011-05-30T12:10:41Z</time>
      </trkpt>
      <trkpt lat="43.25775" lon="2.75513">
        <ele>127.03</ele>
        <time>2011-05-30T12:10:54Z</time>
      </trkpt>
      <trkpt lat="43.25773" lon="2.75512">
        <ele>128.47</ele>
        <time>2011-05-30T12:11:04Z</time>
      </trkpt>
      <trkpt lat="43.25776" lon="2.75511">
        <ele>127.99</ele>
        <time>2011-05-30T12:11:18Z</time>
      </trkpt>
      <trkpt lat="43.25778" lon="2.75511">
        <ele>128.95</ele>
        <time>2011-05-30T12:11:34Z</time>
      </trkpt>
      <trkpt lat="43.25779" lon="2.7551">
        <ele>128.95</ele>
        <time>2011-05-30T12:11:52Z</time>
      </trkpt>
      <trkpt lat="43.2578" lon="2.75511">
        <ele>128.95</ele>
        <time>2011-05-30T12:12:11Z</time>
      </trkpt>
      <trkpt lat="43.25781" lon="2.75511">
        <ele>128.47</ele>
        <time>2011-05-30T12:12:43Z</time>
      </trkpt>
      <trkpt lat="43.25788" lon="2.75521">
        <ele>129.43</ele>
        <time>2011-05-30T12:12:57Z</time>
      </trkpt>
      <trkpt lat="43.25783" lon="2.7553">
        <ele>129.92</ele>
        <time>2011-05-30T12:13:09Z</time>
      </trkpt>
      <trkpt lat="43.25777" lon="2.75543">
        <ele>129.92</ele>
        <time>2011-05-30T12:13:21Z</time>
      </trkpt>
      <trkpt lat="43.25775" lon="2.75547">
        <ele>130.4</ele>
        <time>2011-05-30T12:13:25Z</time>
      </trkpt>
      <trkpt lat="43.25774" lon="2.7555">
        <ele>130.4</ele>
        <time>2011-05-30T12:13:27Z</time>
      </trkpt>
      <trkpt lat="43.25774" lon="2.75553">
        <ele>130.88</ele>
        <time>2011-05-30T12:13:30Z</time>
      </trkpt>
      <trkpt lat="43.25774" lon="2.75559">
        <ele>130.4</ele>
        <time>2011-05-30T12:13:43Z</time>
      </trkpt>
      <trkpt lat="43.25774" lon="2.75559">
        <ele>130.4</ele>
        <time>2011-05-30T12:13:51Z</time>
      </trkpt>
      <trkpt lat="43.25773" lon="2.75555">
        <ele>129.92</ele>
        <time>2011-05-30T12:14:01Z</time>
      </trkpt>
      <trkpt lat="43.25773" lon="2.75556">
        <ele>130.88</ele>
        <time>2011-05-30T12:14:21Z</time>
      </trkpt>
      <trkpt lat="43.25772" lon="2.75575">
        <ele>133.28</ele>
        <time>2011-05-30T12:14:35Z</time>
      </trkpt>
      <trkpt lat="43.25769" lon="2.75581">
        <ele>133.28</ele>
        <time>2011-05-30T12:14:40Z</time>
      </trkpt>
      <trkpt lat="43.25759" lon="2.75584">
        <ele>133.28</ele>
        <time>2011-05-30T12:14:53Z</time>
      </trkpt>
      <trkpt lat="43.25756" lon="2.75583">
        <ele>133.76</ele>
        <time>2011-05-30T12:15:10Z</time>
      </trkpt>
      <trkpt lat="43.25754" lon="2.75579">
        <ele>133.76</ele>
        <time>2011-05-30T12:15:17Z</time>
      </trkpt>
      <trkpt lat="43.25754" lon="2.75571">
        <ele>134.24</ele>
        <time>2011-05-30T12:15:22Z</time>
      </trkpt>
      <trkpt lat="43.25753" lon="2.7556">
        <ele>133.76</ele>
        <time>2011-05-30T12:15:37Z</time>
      </trkpt>
      <trkpt lat="43.25753" lon="2.75559">
        <ele>133.28</ele>
        <time>2011-05-30T12:15:47Z</time>
      </trkpt>
      <trkpt lat="43.25752" lon="2.75578">
        <ele>134.24</ele>
        <time>2011-05-30T12:16:01Z</time>
      </trkpt>
      <trkpt lat="43.2575" lon="2.7558">
        <ele>133.28</ele>
        <time>2011-05-30T12:16:04Z</time>
      </trkpt>
      <trkpt lat="43.25735" lon="2.75584">
        <ele>131.36</ele>
        <time>2011-05-30T12:16:18Z</time>
      </trkpt>
      <trkpt lat="43.25732" lon="2.75584">
        <ele>130.88</ele>
        <time>2011-05-30T12:16:21Z</time>
      </trkpt>
      <trkpt lat="43.25726" lon="2.75584">
        <ele>130.88</ele>
        <time>2011-05-30T12:16:25Z</time>
      </trkpt>
      <trkpt lat="43.25717" lon="2.75582">
        <ele>130.88</ele>
        <time>2011-05-30T12:16:33Z</time>
      </trkpt>
      <trkpt lat="43.2571" lon="2.75583">
        <ele>129.43</ele>
        <time>2011-05-30T12:16:38Z</time>
      </trkpt>
      <trkpt lat="43.25705" lon="2.75585">
        <ele>128.47</ele>
        <time>2011-05-30T12:16:47Z</time>
      </trkpt>
      <trkpt lat="43.25702" lon="2.75585">
        <ele>128.47</ele>
        <time>2011-05-30T12:16:50Z</time>
      </trkpt>
      <trkpt lat="43.25697" lon="2.75587">
        <ele>127.51</ele>
        <time>2011-05-30T12:16:53Z</time>
      </trkpt>
      <trkpt lat="43.25694" lon="2.75588">
        <ele>127.03</ele>
        <time>2011-05-30T12:16:55Z</time>
      </trkpt>
      <trkpt lat="43.2569" lon="2.75589">
        <ele>126.55</ele>
        <time>2011-05-30T12:16:58Z</time>
      </trkpt>
      <trkpt lat="43.25685" lon="2.75591">
        <ele>126.07</ele>
        <time>2011-05-30T12:17:06Z</time>
      </trkpt>
      <trkpt lat="43.25682" lon="2.75589">
        <ele>125.11</ele>
        <time>2011-05-30T12:17:09Z</time>
      </trkpt>
      <trkpt lat="43.25678" lon="2.75588">
        <ele>125.11</ele>
        <time>2011-05-30T12:17:11Z</time>
      </trkpt>
      <trkpt lat="43.25674" lon="2.75585">
        <ele>124.15</ele>
        <time>2011-05-30T12:17:15Z</time>
      </trkpt>
      <trkpt lat="43.25671" lon="2.75582">
        <ele>124.63</ele>
        <time>2011-05-30T12:17:19Z</time>
      </trkpt>
      <trkpt lat="43.25664" lon="2.75575">
        <ele>123.67</ele>
        <time>2011-05-30T12:17:27Z</time>
      </trkpt>
      <trkpt lat="43.25656" lon="2.7557">
        <ele>122.71</ele>
        <time>2011-05-30T12:17:33Z</time>
      </trkpt>
      <trkpt lat="43.25651" lon="2.75564">
        <ele>122.22</ele>
        <time>2011-05-30T12:17:40Z</time>
      </trkpt>
      <trkpt lat="43.25649" lon="2.75562">
        <ele>121.74</ele>
        <time>2011-05-30T12:17:43Z</time>
      </trkpt>
      <trkpt lat="43.25644" lon="2.75563">
        <ele>120.3</ele>
        <time>2011-05-30T12:17:47Z</time>
      </trkpt>
      <trkpt lat="43.25634" lon="2.75568">
        <ele>118.38</ele>
        <time>2011-05-30T12:17:59Z</time>
      </trkpt>
      <trkpt lat="43.25632" lon="2.75567">
        <ele>117.9</ele>
        <time>2011-05-30T12:18:01Z</time>
      </trkpt>
      <trkpt lat="43.2562" lon="2.75568">
        <ele>115.98</ele>
        <time>2011-05-30T12:18:14Z</time>
      </trkpt>
      <trkpt lat="43.25619" lon="2.75568">
        <ele>115.98</ele>
        <time>2011-05-30T12:18:15Z</time>
      </trkpt>
      <trkpt lat="43.25616" lon="2.75567">
        <ele>114.53</ele>
        <time>2011-05-30T12:18:28Z</time>
      </trkpt>
      <trkpt lat="43.25608" lon="2.75566">
        <ele>113.09</ele>
        <time>2011-05-30T12:18:37Z</time>
      </trkpt>
      <trkpt lat="43.256" lon="2.75567">
        <ele>111.65</ele>
        <time>2011-05-30T12:18:47Z</time>
      </trkpt>
      <trkpt lat="43.25595" lon="2.75548">
        <ele>110.69</ele>
        <time>2011-05-30T12:19:02Z</time>
      </trkpt>
      <trkpt lat="43.25595" lon="2.75547">
        <ele>110.21</ele>
        <time>2011-05-30T12:19:22Z</time>
      </trkpt>
      <trkpt lat="43.25595" lon="2.75547">
        <ele>110.69</ele>
        <time>2011-05-30T12:19:44Z</time>
      </trkpt>
      <trkpt lat="43.25595" lon="2.75547">
        <ele>110.21</ele>
        <time>2011-05-30T12:20:06Z</time>
      </trkpt>
      <trkpt lat="43.25595" lon="2.75547">
        <ele>110.69</ele>
        <time>2011-05-30T12:20:27Z</time>
      </trkpt>
      <trkpt lat="43.25596" lon="2.75546">
        <ele>110.69</ele>
        <time>2011-05-30T12:20:43Z</time>
      </trkpt>
      <trkpt lat="43.25596" lon="2.75546">
        <ele>111.17</ele>
        <time>2011-05-30T12:21:11Z</time>
      </trkpt>
      <trkpt lat="43.25596" lon="2.75546">
        <ele>110.21</ele>
        <time>2011-05-30T12:21:30Z</time>
      </trkpt>
      <trkpt lat="43.25596" lon="2.75546">
        <ele>110.21</ele>
        <time>2011-05-30T12:21:59Z</time>
      </trkpt>
      <trkpt lat="43.25596" lon="2.75545">
        <ele>110.21</ele>
        <time>2011-05-30T12:22:20Z</time>
      </trkpt>
      <trkpt lat="43.25595" lon="2.75552">
        <ele>111.17</ele>
        <time>2011-05-30T12:22:26Z</time>
      </trkpt>
      <trkpt lat="43.25595" lon="2.75578">
        <ele>110.69</ele>
        <time>2011-05-30T12:22:43Z</time>
      </trkpt>
      <trkpt lat="43.25593" lon="2.75585">
        <ele>110.21</ele>
        <time>2011-05-30T12:22:47Z</time>
      </trkpt>
      <trkpt lat="43.25584" lon="2.75604">
        <ele>106.84</ele>
        <time>2011-05-30T12:23:00Z</time>
      </trkpt>
      <trkpt lat="43.25583" lon="2.75607">
        <ele>106.84</ele>
        <time>2011-05-30T12:23:02Z</time>
      </trkpt>
      <trkpt lat="43.25576" lon="2.75624">
        <ele>104.44</ele>
        <time>2011-05-30T12:23:13Z</time>
      </trkpt>
      <trkpt lat="43.25575" lon="2.75626">
        <ele>104.44</ele>
        <time>2011-05-30T12:23:15Z</time>
      </trkpt>
      <trkpt lat="43.25567" lon="2.75648">
        <ele>102.04</ele>
        <time>2011-05-30T12:23:28Z</time>
      </trkpt>
      <trkpt lat="43.25559" lon="2.75662">
        <ele>101.56</ele>
        <time>2011-05-30T12:23:38Z</time>
      </trkpt>
      <trkpt lat="43.25557" lon="2.75682">
        <ele>99.63</ele>
        <time>2011-05-30T12:23:51Z</time>
      </trkpt>
      <trkpt lat="43.2556" lon="2.7569">
        <ele>99.15</ele>
        <time>2011-05-30T12:23:57Z</time>
      </trkpt>
      <trkpt lat="43.25564" lon="2.7571">
        <ele>95.79</ele>
        <time>2011-05-30T12:24:10Z</time>
      </trkpt>
      <trkpt lat="43.25573" lon="2.75723">
        <ele>94.83</ele>
        <time>2011-05-30T12:24:20Z</time>
      </trkpt>
      <trkpt lat="43.25579" lon="2.75736">
        <ele>94.35</ele>
        <time>2011-05-30T12:24:29Z</time>
      </trkpt>
      <trkpt lat="43.25582" lon="2.75758">
        <ele>92.9</ele>
        <time>2011-05-30T12:24:44Z</time>
      </trkpt>
      <trkpt lat="43.25582" lon="2.75759">
        <ele>92.9</ele>
        <time>2011-05-30T12:24:45Z</time>
      </trkpt>
      <trkpt lat="43.25585" lon="2.7577">
        <ele>92.9</ele>
        <time>2011-05-30T12:24:51Z</time>
      </trkpt>
      <trkpt lat="43.25582" lon="2.75792">
        <ele>90.5</ele>
        <time>2011-05-30T12:25:03Z</time>
      </trkpt>
      <trkpt lat="43.25581" lon="2.75792">
        <ele>90.5</ele>
        <time>2011-05-30T12:25:04Z</time>
      </trkpt>
      <trkpt lat="43.25578" lon="2.75799">
        <ele>89.54</ele>
        <time>2011-05-30T12:25:10Z</time>
      </trkpt>
      <trkpt lat="43.25574" lon="2.75804">
        <ele>88.58</ele>
        <time>2011-05-30T12:25:15Z</time>
      </trkpt>
      <trkpt lat="43.25568" lon="2.75806">
        <ele>87.62</ele>
        <time>2011-05-30T12:25:27Z</time>
      </trkpt>
      <trkpt lat="43.25557" lon="2.75806">
        <ele>86.18</ele>
        <time>2011-05-30T12:25:39Z</time>
      </trkpt>
      <trkpt lat="43.25547" lon="2.75804">
        <ele>85.21</ele>
        <time>2011-05-30T12:25:52Z</time>
      </trkpt>
      <trkpt lat="43.25545" lon="2.75803">
        <ele>85.21</ele>
        <time>2011-05-30T12:25:55Z</time>
      </trkpt>
      <trkpt lat="43.2554" lon="2.75801">
        <ele>84.73</ele>
        <time>2011-05-30T12:26:00Z</time>
      </trkpt>
      <trkpt lat="43.25528" lon="2.75795">
        <ele>84.25</ele>
        <time>2011-05-30T12:26:08Z</time>
      </trkpt>
      <trkpt lat="43.25518" lon="2.75794">
        <ele>82.81</ele>
        <time>2011-05-30T12:26:22Z</time>
      </trkpt>
      <trkpt lat="43.25512" lon="2.75793">
        <ele>81.85</ele>
        <time>2011-05-30T12:26:30Z</time>
      </trkpt>
      <trkpt lat="43.25509" lon="2.75793">
        <ele>81.37</ele>
        <time>2011-05-30T12:26:34Z</time>
      </trkpt>
      <trkpt lat="43.25504" lon="2.7579">
        <ele>80.41</ele>
        <time>2011-05-30T12:26:40Z</time>
      </trkpt>
      <trkpt lat="43.25498" lon="2.75789">
        <ele>79.93</ele>
        <time>2011-05-30T12:26:47Z</time>
      </trkpt>
      <trkpt lat="43.25494" lon="2.75788">
        <ele>79.45</ele>
        <time>2011-05-30T12:26:51Z</time>
      </trkpt>
      <trkpt lat="43.25487" lon="2.75783">
        <ele>79.45</ele>
        <time>2011-05-30T12:27:06Z</time>
      </trkpt>
      <trkpt lat="43.25482" lon="2.75783">
        <ele>78.97</ele>
        <time>2011-05-30T12:27:10Z</time>
      </trkpt>
      <trkpt lat="43.25472" lon="2.75781">
        <ele>78</ele>
        <time>2011-05-30T12:27:20Z</time>
      </trkpt>
      <trkpt lat="43.25466" lon="2.75781">
        <ele>78</ele>
        <time>2011-05-30T12:27:25Z</time>
      </trkpt>
      <trkpt lat="43.2546" lon="2.7578">
        <ele>78.48</ele>
        <time>2011-05-30T12:27:36Z</time>
      </trkpt>
      <trkpt lat="43.25453" lon="2.75776">
        <ele>77.52</ele>
        <time>2011-05-30T12:27:44Z</time>
      </trkpt>
      <trkpt lat="43.25449" lon="2.75776">
        <ele>77.52</ele>
        <time>2011-05-30T12:27:47Z</time>
      </trkpt>
      <trkpt lat="43.25446" lon="2.75775">
        <ele>76.56</ele>
        <time>2011-05-30T12:28:00Z</time>
      </trkpt>
      <trkpt lat="43.25444" lon="2.75774">
        <ele>76.56</ele>
        <time>2011-05-30T12:28:02Z</time>
      </trkpt>
      <trkpt lat="43.2543" lon="2.75777">
        <ele>76.08</ele>
        <time>2011-05-30T12:28:16Z</time>
      </trkpt>
      <trkpt lat="43.25425" lon="2.75779">
        <ele>75.6</ele>
        <time>2011-05-30T12:28:22Z</time>
      </trkpt>
      <trkpt lat="43.25414" lon="2.75785">
        <ele>74.64</ele>
        <time>2011-05-30T12:28:35Z</time>
      </trkpt>
      <trkpt lat="43.25408" lon="2.75788">
        <ele>74.16</ele>
        <time>2011-05-30T12:28:41Z</time>
      </trkpt>
      <trkpt lat="43.25399" lon="2.75802">
        <ele>72.72</ele>
        <time>2011-05-30T12:28:53Z</time>
      </trkpt>
      <trkpt lat="43.25389" lon="2.75812">
        <ele>71.76</ele>
        <time>2011-05-30T12:29:05Z</time>
      </trkpt>
      <trkpt lat="43.25388" lon="2.75813">
        <ele>71.76</ele>
        <time>2011-05-30T12:29:06Z</time>
      </trkpt>
      <trkpt lat="43.25379" lon="2.75824">
        <ele>71.27</ele>
        <time>2011-05-30T12:29:20Z</time>
      </trkpt>
      <trkpt lat="43.25365" lon="2.75835">
        <ele>71.27</ele>
        <time>2011-05-30T12:29:34Z</time>
      </trkpt>
      <trkpt lat="43.2536" lon="2.75837">
        <ele>72.24</ele>
        <time>2011-05-30T12:29:39Z</time>
      </trkpt>
      <trkpt lat="43.25351" lon="2.75853">
        <ele>71.27</ele>
        <time>2011-05-30T12:29:55Z</time>
      </trkpt>
      <trkpt lat="43.25345" lon="2.75864">
        <ele>70.79</ele>
        <time>2011-05-30T12:30:08Z</time>
      </trkpt>
      <trkpt lat="43.25344" lon="2.75867">
        <ele>70.79</ele>
        <time>2011-05-30T12:30:13Z</time>
      </trkpt>
      <trkpt lat="43.25331" lon="2.75876">
        <ele>70.31</ele>
        <time>2011-05-30T12:30:26Z</time>
      </trkpt>
      <trkpt lat="43.2532" lon="2.75877">
        <ele>68.87</ele>
        <time>2011-05-30T12:30:34Z</time>
      </trkpt>
      <trkpt lat="43.25316" lon="2.75877">
        <ele>68.87</ele>
        <time>2011-05-30T12:30:37Z</time>
      </trkpt>
      <trkpt lat="43.25306" lon="2.75874">
        <ele>68.87</ele>
        <time>2011-05-30T12:30:45Z</time>
      </trkpt>
      <trkpt lat="43.25294" lon="2.75881">
        <ele>68.87</ele>
        <time>2011-05-30T12:30:58Z</time>
      </trkpt>
      <trkpt lat="43.25292" lon="2.75885">
        <ele>68.87</ele>
        <time>2011-05-30T12:31:02Z</time>
      </trkpt>
      <trkpt lat="43.25285" lon="2.75895">
        <ele>69.35</ele>
        <time>2011-05-30T12:31:13Z</time>
      </trkpt>
      <trkpt lat="43.25268" lon="2.75894">
        <ele>69.35</ele>
        <time>2011-05-30T12:31:27Z</time>
      </trkpt>
      <trkpt lat="43.25254" lon="2.75887">
        <ele>69.83</ele>
        <time>2011-05-30T12:31:42Z</time>
      </trkpt>
      <trkpt lat="43.25245" lon="2.75888">
        <ele>69.35</ele>
        <time>2011-05-30T12:31:55Z</time>
      </trkpt>
      <trkpt lat="43.25249" lon="2.75897">
        <ele>68.87</ele>
        <time>2011-05-30T12:32:07Z</time>
      </trkpt>
      <trkpt lat="43.25256" lon="2.75908">
        <ele>67.91</ele>
        <time>2011-05-30T12:32:20Z</time>
      </trkpt>
      <trkpt lat="43.25265" lon="2.75921">
        <ele>66.95</ele>
        <time>2011-05-30T12:32:37Z</time>
      </trkpt>
      <trkpt lat="43.25271" lon="2.75932">
        <ele>65.99</ele>
        <time>2011-05-30T12:32:51Z</time>
      </trkpt>
      <trkpt lat="43.2528" lon="2.7594">
        <ele>65.51</ele>
        <time>2011-05-30T12:33:05Z</time>
      </trkpt>
      <trkpt lat="43.25288" lon="2.75943">
        <ele>64.55</ele>
        <time>2011-05-30T12:33:16Z</time>
      </trkpt>
      <trkpt lat="43.25294" lon="2.75951">
        <ele>64.07</ele>
        <time>2011-05-30T12:33:30Z</time>
      </trkpt>
      <trkpt lat="43.25294" lon="2.75953">
        <ele>64.07</ele>
        <time>2011-05-30T12:33:37Z</time>
      </trkpt>
      <trkpt lat="43.25293" lon="2.75956">
        <ele>63.58</ele>
        <time>2011-05-30T12:33:39Z</time>
      </trkpt>
      <trkpt lat="43.25292" lon="2.7596">
        <ele>62.62</ele>
        <time>2011-05-30T12:33:47Z</time>
      </trkpt>
      <trkpt lat="43.25287" lon="2.75963">
        <ele>61.66</ele>
        <time>2011-05-30T12:33:58Z</time>
      </trkpt>
      <trkpt lat="43.25273" lon="2.75967">
        <ele>60.22</ele>
        <time>2011-05-30T12:34:13Z</time>
      </trkpt>
      <trkpt lat="43.25267" lon="2.75967">
        <ele>59.74</ele>
        <time>2011-05-30T12:34:26Z</time>
      </trkpt>
      <trkpt lat="43.2526" lon="2.75967">
        <ele>58.78</ele>
        <time>2011-05-30T12:34:38Z</time>
      </trkpt>
      <trkpt lat="43.25249" lon="2.75961">
        <ele>58.78</ele>
        <time>2011-05-30T12:34:50Z</time>
      </trkpt>
      <trkpt lat="43.25241" lon="2.75962">
        <ele>58.3</ele>
        <time>2011-05-30T12:35:01Z</time>
      </trkpt>
      <trkpt lat="43.25235" lon="2.75966">
        <ele>56.86</ele>
        <time>2011-05-30T12:35:14Z</time>
      </trkpt>
      <trkpt lat="43.25224" lon="2.75965">
        <ele>56.86</ele>
        <time>2011-05-30T12:35:24Z</time>
      </trkpt>
      <trkpt lat="43.25219" lon="2.75965">
        <ele>56.86</ele>
        <time>2011-05-30T12:35:28Z</time>
      </trkpt>
      <trkpt lat="43.2521" lon="2.75966">
        <ele>56.37</ele>
        <time>2011-05-30T12:35:37Z</time>
      </trkpt>
      <trkpt lat="43.25202" lon="2.75963">
        <ele>56.86</ele>
        <time>2011-05-30T12:35:50Z</time>
      </trkpt>
      <trkpt lat="43.25195" lon="2.75955">
        <ele>56.86</ele>
        <time>2011-05-30T12:36:04Z</time>
      </trkpt>
      <trkpt lat="43.25185" lon="2.75949">
        <ele>56.37</ele>
        <time>2011-05-30T12:36:19Z</time>
      </trkpt>
      <trkpt lat="43.25184" lon="2.75948">
        <ele>56.37</ele>
        <time>2011-05-30T12:36:20Z</time>
      </trkpt>
      <trkpt lat="43.25174" lon="2.75942">
        <ele>55.41</ele>
        <time>2011-05-30T12:36:34Z</time>
      </trkpt>
      <trkpt lat="43.25172" lon="2.75942">
        <ele>54.93</ele>
        <time>2011-05-30T12:36:38Z</time>
      </trkpt>
      <trkpt lat="43.2516" lon="2.75937">
        <ele>55.41</ele>
        <time>2011-05-30T12:36:51Z</time>
      </trkpt>
      <trkpt lat="43.25154" lon="2.75929">
        <ele>56.37</ele>
        <time>2011-05-30T12:37:05Z</time>
      </trkpt>
      <trkpt lat="43.25148" lon="2.75918">
        <ele>56.37</ele>
        <time>2011-05-30T12:37:19Z</time>
      </trkpt>
      <trkpt lat="43.25138" lon="2.75914">
        <ele>54.93</ele>
        <time>2011-05-30T12:37:31Z</time>
      </trkpt>
      <trkpt lat="43.25135" lon="2.7591">
        <ele>54.93</ele>
        <time>2011-05-30T12:37:40Z</time>
      </trkpt>
      <trkpt lat="43.25127" lon="2.75903">
        <ele>54.93</ele>
        <time>2011-05-30T12:37:54Z</time>
      </trkpt>
      <trkpt lat="43.25124" lon="2.759">
        <ele>54.45</ele>
        <time>2011-05-30T12:38:08Z</time>
      </trkpt>
      <trkpt lat="43.25119" lon="2.75896">
        <ele>54.45</ele>
        <time>2011-05-30T12:38:14Z</time>
      </trkpt>
      <trkpt lat="43.25112" lon="2.75893">
        <ele>53.49</ele>
        <time>2011-05-30T12:38:26Z</time>
      </trkpt>
      <trkpt lat="43.2511" lon="2.75892">
        <ele>52.53</ele>
        <time>2011-05-30T12:38:30Z</time>
      </trkpt>
      <trkpt lat="43.25104" lon="2.75887">
        <ele>52.05</ele>
        <time>2011-05-30T12:38:36Z</time>
      </trkpt>
      <trkpt lat="43.25095" lon="2.75882">
        <ele>50.13</ele>
        <time>2011-05-30T12:38:49Z</time>
      </trkpt>
      <trkpt lat="43.25092" lon="2.75881">
        <ele>49.65</ele>
        <time>2011-05-30T12:39:00Z</time>
      </trkpt>
      <trkpt lat="43.25087" lon="2.75882">
        <ele>48.68</ele>
        <time>2011-05-30T12:39:15Z</time>
      </trkpt>
      <trkpt lat="43.25086" lon="2.75882">
        <ele>49.16</ele>
        <time>2011-05-30T12:39:35Z</time>
      </trkpt>
      <trkpt lat="43.25085" lon="2.75882">
        <ele>49.16</ele>
        <time>2011-05-30T12:39:58Z</time>
      </trkpt>
      <trkpt lat="43.25085" lon="2.75883">
        <ele>49.16</ele>
        <time>2011-05-30T12:40:22Z</time>
      </trkpt>
      <trkpt lat="43.25084" lon="2.75884">
        <ele>49.16</ele>
        <time>2011-05-30T12:40:43Z</time>
      </trkpt>
      <trkpt lat="43.25084" lon="2.75883">
        <ele>49.16</ele>
        <time>2011-05-30T12:41:05Z</time>
      </trkpt>
      <trkpt lat="43.25083" lon="2.75883">
        <ele>49.16</ele>
        <time>2011-05-30T12:41:31Z</time>
      </trkpt>
      <trkpt lat="43.25083" lon="2.75883">
        <ele>49.16</ele>
        <time>2011-05-30T12:41:53Z</time>
      </trkpt>
      <trkpt lat="43.25082" lon="2.75883">
        <ele>49.16</ele>
        <time>2011-05-30T12:42:07Z</time>
      </trkpt>
      <trkpt lat="43.25083" lon="2.75884">
        <ele>49.16</ele>
        <time>2011-05-30T12:42:22Z</time>
      </trkpt>
      <trkpt lat="43.25082" lon="2.75884">
        <ele>48.68</ele>
        <time>2011-05-30T12:42:37Z</time>
      </trkpt>
      <trkpt lat="43.25082" lon="2.75884">
        <ele>48.68</ele>
        <time>2011-05-30T12:42:54Z</time>
      </trkpt>
      <trkpt lat="43.25082" lon="2.75884">
        <ele>48.68</ele>
        <time>2011-05-30T12:43:20Z</time>
      </trkpt>
      <trkpt lat="43.2508" lon="2.75887">
        <ele>48.2</ele>
        <time>2011-05-30T12:43:31Z</time>
      </trkpt>
      <trkpt lat="43.25075" lon="2.75892">
        <ele>47.24</ele>
        <time>2011-05-30T12:43:42Z</time>
      </trkpt>
      <trkpt lat="43.25063" lon="2.75889">
        <ele>47.24</ele>
        <time>2011-05-30T12:43:56Z</time>
      </trkpt>
      <trkpt lat="43.25054" lon="2.75879">
        <ele>47.72</ele>
        <time>2011-05-30T12:44:09Z</time>
      </trkpt>
      <trkpt lat="43.2505" lon="2.75874">
        <ele>48.2</ele>
        <time>2011-05-30T12:44:15Z</time>
      </trkpt>
      <trkpt lat="43.25049" lon="2.7587">
        <ele>48.2</ele>
        <time>2011-05-30T12:44:18Z</time>
      </trkpt>
      <trkpt lat="43.25045" lon="2.75863">
        <ele>48.2</ele>
        <time>2011-05-30T12:44:25Z</time>
      </trkpt>
      <trkpt lat="43.25044" lon="2.75859">
        <ele>48.2</ele>
        <time>2011-05-30T12:44:28Z</time>
      </trkpt>
      <trkpt lat="43.2504" lon="2.7585">
        <ele>48.2</ele>
        <time>2011-05-30T12:44:37Z</time>
      </trkpt>
      <trkpt lat="43.25036" lon="2.75842">
        <ele>48.2</ele>
        <time>2011-05-30T12:44:44Z</time>
      </trkpt>
      <trkpt lat="43.25035" lon="2.7584">
        <ele>48.2</ele>
        <time>2011-05-30T12:44:46Z</time>
      </trkpt>
      <trkpt lat="43.25029" lon="2.75825">
        <ele>48.2</ele>
        <time>2011-05-30T12:44:58Z</time>
      </trkpt>
      <trkpt lat="43.25025" lon="2.75814">
        <ele>47.72</ele>
        <time>2011-05-30T12:45:06Z</time>
      </trkpt>
      <trkpt lat="43.25023" lon="2.75812">
        <ele>47.24</ele>
        <time>2011-05-30T12:45:08Z</time>
      </trkpt>
      <trkpt lat="43.25021" lon="2.75797">
        <ele>46.76</ele>
        <time>2011-05-30T12:45:20Z</time>
      </trkpt>
      <trkpt lat="43.25016" lon="2.75784">
        <ele>46.28</ele>
        <time>2011-05-30T12:45:31Z</time>
      </trkpt>
      <trkpt lat="43.25006" lon="2.7577">
        <ele>45.8</ele>
        <time>2011-05-30T12:45:44Z</time>
      </trkpt>
      <trkpt lat="43.24999" lon="2.75757">
        <ele>44.84</ele>
        <time>2011-05-30T12:45:58Z</time>
      </trkpt>
      <trkpt lat="43.24995" lon="2.75752">
        <ele>44.36</ele>
        <time>2011-05-30T12:46:03Z</time>
      </trkpt>
      <trkpt lat="43.24987" lon="2.75748">
        <ele>43.88</ele>
        <time>2011-05-30T12:46:17Z</time>
      </trkpt>
      <trkpt lat="43.24985" lon="2.75751">
        <ele>44.84</ele>
        <time>2011-05-30T12:46:28Z</time>
      </trkpt>
      <trkpt lat="43.24985" lon="2.75751">
        <ele>44.36</ele>
        <time>2011-05-30T12:46:45Z</time>
      </trkpt>
      <trkpt lat="43.24982" lon="2.7576">
        <ele>46.76</ele>
        <time>2011-05-30T12:46:59Z</time>
      </trkpt>
      <trkpt lat="43.24978" lon="2.7576">
        <ele>46.76</ele>
        <time>2011-05-30T12:47:10Z</time>
      </trkpt>
      <trkpt lat="43.24974" lon="2.75766">
        <ele>48.68</ele>
        <time>2011-05-30T12:47:24Z</time>
      </trkpt>
      <trkpt lat="43.24974" lon="2.75767">
        <ele>48.68</ele>
        <time>2011-05-30T12:47:26Z</time>
      </trkpt>
      <trkpt lat="43.24967" lon="2.75769">
        <ele>50.13</ele>
        <time>2011-05-30T12:47:38Z</time>
      </trkpt>
      <trkpt lat="43.24963" lon="2.75771">
        <ele>51.09</ele>
        <time>2011-05-30T12:47:52Z</time>
      </trkpt>
      <trkpt lat="43.2496" lon="2.75774">
        <ele>53.01</ele>
        <time>2011-05-30T12:48:04Z</time>
      </trkpt>
      <trkpt lat="43.24958" lon="2.75778">
        <ele>54.45</ele>
        <time>2011-05-30T12:48:16Z</time>
      </trkpt>
      <trkpt lat="43.24957" lon="2.75779">
        <ele>54.93</ele>
        <time>2011-05-30T12:48:34Z</time>
      </trkpt>
      <trkpt lat="43.24958" lon="2.75781">
        <ele>55.89</ele>
        <time>2011-05-30T12:48:50Z</time>
      </trkpt>
      <trkpt lat="43.24957" lon="2.75784">
        <ele>56.37</ele>
        <time>2011-05-30T12:48:56Z</time>
      </trkpt>
      <trkpt lat="43.24952" lon="2.75792">
        <ele>59.26</ele>
        <time>2011-05-30T12:49:02Z</time>
      </trkpt>
      <trkpt lat="43.24948" lon="2.75796">
        <ele>60.7</ele>
        <time>2011-05-30T12:49:07Z</time>
      </trkpt>
      <trkpt lat="43.24944" lon="2.75802">
        <ele>63.58</ele>
        <time>2011-05-30T12:49:16Z</time>
      </trkpt>
      <trkpt lat="43.24943" lon="2.75807">
        <ele>64.07</ele>
        <time>2011-05-30T12:49:30Z</time>
      </trkpt>
      <trkpt lat="43.24945" lon="2.75817">
        <ele>64.55</ele>
        <time>2011-05-30T12:49:42Z</time>
      </trkpt>
      <trkpt lat="43.24951" lon="2.7583">
        <ele>65.51</ele>
        <time>2011-05-30T12:49:59Z</time>
      </trkpt>
      <trkpt lat="43.24945" lon="2.75843">
        <ele>67.43</ele>
        <time>2011-05-30T12:50:14Z</time>
      </trkpt>
      <trkpt lat="43.24942" lon="2.75848">
        <ele>69.35</ele>
        <time>2011-05-30T12:50:26Z</time>
      </trkpt>
      <trkpt lat="43.24938" lon="2.75847">
        <ele>71.27</ele>
        <time>2011-05-30T12:50:41Z</time>
      </trkpt>
      <trkpt lat="43.24937" lon="2.75847">
        <ele>72.24</ele>
        <time>2011-05-30T12:50:59Z</time>
      </trkpt>
      <trkpt lat="43.24937" lon="2.75847">
        <ele>71.27</ele>
        <time>2011-05-30T12:51:28Z</time>
      </trkpt>
      <trkpt lat="43.24936" lon="2.75847">
        <ele>71.27</ele>
        <time>2011-05-30T12:51:44Z</time>
      </trkpt>
      <trkpt lat="43.24936" lon="2.75847">
        <ele>70.79</ele>
        <time>2011-05-30T12:52:04Z</time>
      </trkpt>
      <trkpt lat="43.24936" lon="2.75847">
        <ele>71.27</ele>
        <time>2011-05-30T12:52:26Z</time>
      </trkpt>
      <trkpt lat="43.24936" lon="2.75847">
        <ele>70.79</ele>
        <time>2011-05-30T12:52:47Z</time>
      </trkpt>
      <trkpt lat="43.24936" lon="2.75846">
        <ele>70.31</ele>
        <time>2011-05-30T12:53:09Z</time>
      </trkpt>
      <trkpt lat="43.24936" lon="2.75846">
        <ele>69.83</ele>
        <time>2011-05-30T12:53:42Z</time>
      </trkpt>
      <trkpt lat="43.24936" lon="2.75846">
        <ele>69.83</ele>
        <time>2011-05-30T12:54:10Z</time>
      </trkpt>
      <trkpt lat="43.24938" lon="2.75847">
        <ele>69.83</ele>
        <time>2011-05-30T12:54:24Z</time>
      </trkpt>
      <trkpt lat="43.24939" lon="2.75852">
        <ele>70.31</ele>
        <time>2011-05-30T12:54:45Z</time>
      </trkpt>
      <trkpt lat="43.24941" lon="2.75861">
        <ele>70.79</ele>
        <time>2011-05-30T12:54:59Z</time>
      </trkpt>
      <trkpt lat="43.2494" lon="2.75862">
        <ele>70.31</ele>
        <time>2011-05-30T12:55:20Z</time>
      </trkpt>
      <trkpt lat="43.24941" lon="2.75864">
        <ele>70.79</ele>
        <time>2011-05-30T12:55:33Z</time>
      </trkpt>
      <trkpt lat="43.24941" lon="2.75865">
        <ele>70.31</ele>
        <time>2011-05-30T12:55:47Z</time>
      </trkpt>
      <trkpt lat="43.24943" lon="2.75868">
        <ele>69.35</ele>
        <time>2011-05-30T12:55:58Z</time>
      </trkpt>
      <trkpt lat="43.24946" lon="2.75868">
        <ele>69.35</ele>
        <time>2011-05-30T12:56:10Z</time>
      </trkpt>
      <trkpt lat="43.24952" lon="2.75868">
        <ele>68.39</ele>
        <time>2011-05-30T12:56:20Z</time>
      </trkpt>
      <trkpt lat="43.24953" lon="2.75876">
        <ele>69.35</ele>
        <time>2011-05-30T12:56:31Z</time>
      </trkpt>
      <trkpt lat="43.24956" lon="2.75888">
        <ele>69.83</ele>
        <time>2011-05-30T12:56:43Z</time>
      </trkpt>
      <trkpt lat="43.24961" lon="2.75896">
        <ele>69.83</ele>
        <time>2011-05-30T12:56:57Z</time>
      </trkpt>
      <trkpt lat="43.24965" lon="2.75906">
        <ele>69.35</ele>
        <time>2011-05-30T12:57:10Z</time>
      </trkpt>
      <trkpt lat="43.24973" lon="2.75919">
        <ele>69.83</ele>
        <time>2011-05-30T12:57:24Z</time>
      </trkpt>
      <trkpt lat="43.2498" lon="2.75936">
        <ele>71.27</ele>
        <time>2011-05-30T12:57:40Z</time>
      </trkpt>
      <trkpt lat="43.2498" lon="2.75942">
        <ele>71.76</ele>
        <time>2011-05-30T12:57:56Z</time>
      </trkpt>
      <trkpt lat="43.24983" lon="2.75953">
        <ele>71.76</ele>
        <time>2011-05-30T12:58:11Z</time>
      </trkpt>
      <trkpt lat="43.24986" lon="2.75957">
        <ele>71.76</ele>
        <time>2011-05-30T12:58:17Z</time>
      </trkpt>
      <trkpt lat="43.24992" lon="2.7597">
        <ele>72.72</ele>
        <time>2011-05-30T12:58:33Z</time>
      </trkpt>
      <trkpt lat="43.25001" lon="2.75983">
        <ele>73.68</ele>
        <time>2011-05-30T12:58:47Z</time>
      </trkpt>
      <trkpt lat="43.25003" lon="2.7599">
        <ele>73.68</ele>
        <time>2011-05-30T12:58:54Z</time>
      </trkpt>
      <trkpt lat="43.2501" lon="2.76">
        <ele>74.16</ele>
        <time>2011-05-30T12:59:08Z</time>
      </trkpt>
      <trkpt lat="43.25015" lon="2.76014">
        <ele>74.64</ele>
        <time>2011-05-30T12:59:22Z</time>
      </trkpt>
      <trkpt lat="43.25027" lon="2.7603">
        <ele>73.68</ele>
        <time>2011-05-30T12:59:39Z</time>
      </trkpt>
      <trkpt lat="43.2503" lon="2.7604">
        <ele>74.64</ele>
        <time>2011-05-30T12:59:50Z</time>
      </trkpt>
      <trkpt lat="43.25037" lon="2.76054">
        <ele>75.12</ele>
        <time>2011-05-30T13:00:05Z</time>
      </trkpt>
      <trkpt lat="43.25047" lon="2.76068">
        <ele>76.08</ele>
        <time>2011-05-30T13:00:21Z</time>
      </trkpt>
      <trkpt lat="43.25049" lon="2.76079">
        <ele>76.56</ele>
        <time>2011-05-30T13:00:33Z</time>
      </trkpt>
      <trkpt lat="43.25051" lon="2.76097">
        <ele>78.48</ele>
        <time>2011-05-30T13:00:47Z</time>
      </trkpt>
      <trkpt lat="43.25056" lon="2.76106">
        <ele>78.97</ele>
        <time>2011-05-30T13:00:54Z</time>
      </trkpt>
      <trkpt lat="43.25063" lon="2.76115">
        <ele>79.45</ele>
        <time>2011-05-30T13:01:04Z</time>
      </trkpt>
      <trkpt lat="43.25065" lon="2.76124">
        <ele>79.93</ele>
        <time>2011-05-30T13:01:15Z</time>
      </trkpt>
      <trkpt lat="43.25066" lon="2.76127">
        <ele>80.41</ele>
        <time>2011-05-30T13:01:17Z</time>
      </trkpt>
      <trkpt lat="43.25074" lon="2.76138">
        <ele>79.93</ele>
        <time>2011-05-30T13:01:32Z</time>
      </trkpt>
      <trkpt lat="43.2508" lon="2.76151">
        <ele>81.85</ele>
        <time>2011-05-30T13:01:49Z</time>
      </trkpt>
      <trkpt lat="43.25084" lon="2.7617">
        <ele>82.33</ele>
        <time>2011-05-30T13:02:02Z</time>
      </trkpt>
      <trkpt lat="43.25086" lon="2.76184">
        <ele>82.81</ele>
        <time>2011-05-30T13:02:15Z</time>
      </trkpt>
      <trkpt lat="43.25094" lon="2.76197">
        <ele>83.29</ele>
        <time>2011-05-30T13:02:29Z</time>
      </trkpt>
      <trkpt lat="43.25095" lon="2.76197">
        <ele>83.77</ele>
        <time>2011-05-30T13:02:31Z</time>
      </trkpt>
      <trkpt lat="43.25101" lon="2.76208">
        <ele>85.21</ele>
        <time>2011-05-30T13:02:45Z</time>
      </trkpt>
      <trkpt lat="43.25105" lon="2.76219">
        <ele>85.21</ele>
        <time>2011-05-30T13:03:00Z</time>
      </trkpt>
      <trkpt lat="43.25111" lon="2.76232">
        <ele>86.66</ele>
        <time>2011-05-30T13:03:16Z</time>
      </trkpt>
      <trkpt lat="43.25112" lon="2.76236">
        <ele>86.66</ele>
        <time>2011-05-30T13:03:26Z</time>
      </trkpt>
      <trkpt lat="43.25118" lon="2.76254">
        <ele>88.1</ele>
        <time>2011-05-30T13:03:42Z</time>
      </trkpt>
      <trkpt lat="43.25124" lon="2.76263">
        <ele>88.1</ele>
        <time>2011-05-30T13:03:51Z</time>
      </trkpt>
      <trkpt lat="43.25126" lon="2.76266">
        <ele>88.1</ele>
        <time>2011-05-30T13:03:54Z</time>
      </trkpt>
      <trkpt lat="43.25125" lon="2.76279">
        <ele>88.1</ele>
        <time>2011-05-30T13:04:08Z</time>
      </trkpt>
      <trkpt lat="43.25133" lon="2.76291">
        <ele>88.1</ele>
        <time>2011-05-30T13:04:21Z</time>
      </trkpt>
      <trkpt lat="43.2514" lon="2.76302">
        <ele>88.1</ele>
        <time>2011-05-30T13:04:34Z</time>
      </trkpt>
      <trkpt lat="43.25144" lon="2.76313">
        <ele>89.06</ele>
        <time>2011-05-30T13:04:44Z</time>
      </trkpt>
      <trkpt lat="43.25153" lon="2.76324">
        <ele>89.54</ele>
        <time>2011-05-30T13:05:01Z</time>
      </trkpt>
      <trkpt lat="43.25157" lon="2.76329">
        <ele>89.54</ele>
        <time>2011-05-30T13:05:18Z</time>
      </trkpt>
      <trkpt lat="43.25162" lon="2.76347">
        <ele>89.54</ele>
        <time>2011-05-30T13:05:35Z</time>
      </trkpt>
      <trkpt lat="43.25165" lon="2.76364">
        <ele>88.58</ele>
        <time>2011-05-30T13:05:49Z</time>
      </trkpt>
      <trkpt lat="43.25171" lon="2.76378">
        <ele>89.54</ele>
        <time>2011-05-30T13:06:05Z</time>
      </trkpt>
      <trkpt lat="43.25177" lon="2.76396">
        <ele>90.5</ele>
        <time>2011-05-30T13:06:20Z</time>
      </trkpt>
      <trkpt lat="43.25177" lon="2.76399">
        <ele>90.02</ele>
        <time>2011-05-30T13:06:22Z</time>
      </trkpt>
      <trkpt lat="43.25182" lon="2.76412">
        <ele>91.46</ele>
        <time>2011-05-30T13:06:34Z</time>
      </trkpt>
      <trkpt lat="43.25183" lon="2.76418">
        <ele>91.46</ele>
        <time>2011-05-30T13:06:51Z</time>
      </trkpt>
      <trkpt lat="43.25184" lon="2.76419">
        <ele>91.46</ele>
        <time>2011-05-30T13:07:07Z</time>
      </trkpt>
      <trkpt lat="43.25184" lon="2.76419">
        <ele>91.94</ele>
        <time>2011-05-30T13:07:20Z</time>
      </trkpt>
      <trkpt lat="43.25185" lon="2.76421">
        <ele>91.94</ele>
        <time>2011-05-30T13:07:29Z</time>
      </trkpt>
      <trkpt lat="43.25187" lon="2.76428">
        <ele>91.94</ele>
        <time>2011-05-30T13:07:38Z</time>
      </trkpt>
      <trkpt lat="43.2519" lon="2.76428">
        <ele>91.94</ele>
        <time>2011-05-30T13:07:41Z</time>
      </trkpt>
      <trkpt lat="43.25192" lon="2.76431">
        <ele>92.42</ele>
        <time>2011-05-30T13:07:48Z</time>
      </trkpt>
      <trkpt lat="43.25198" lon="2.7645">
        <ele>92.9</ele>
        <time>2011-05-30T13:08:02Z</time>
      </trkpt>
      <trkpt lat="43.25199" lon="2.76452">
        <ele>92.9</ele>
        <time>2011-05-30T13:08:03Z</time>
      </trkpt>
      <trkpt lat="43.252" lon="2.76454">
        <ele>92.9</ele>
        <time>2011-05-30T13:08:05Z</time>
      </trkpt>
      <trkpt lat="43.25209" lon="2.76468">
        <ele>93.87</ele>
        <time>2011-05-30T13:08:22Z</time>
      </trkpt>
      <trkpt lat="43.25209" lon="2.76473">
        <ele>94.35</ele>
        <time>2011-05-30T13:08:31Z</time>
      </trkpt>
      <trkpt lat="43.2521" lon="2.76477">
        <ele>94.35</ele>
        <time>2011-05-30T13:08:34Z</time>
      </trkpt>
      <trkpt lat="43.25221" lon="2.76496">
        <ele>95.31</ele>
        <time>2011-05-30T13:08:49Z</time>
      </trkpt>
      <trkpt lat="43.25224" lon="2.76501">
        <ele>94.83</ele>
        <time>2011-05-30T13:08:53Z</time>
      </trkpt>
      <trkpt lat="43.25225" lon="2.76508">
        <ele>95.79</ele>
        <time>2011-05-30T13:08:58Z</time>
      </trkpt>
      <trkpt lat="43.25227" lon="2.76515">
        <ele>95.31</ele>
        <time>2011-05-30T13:09:03Z</time>
      </trkpt>
      <trkpt lat="43.25229" lon="2.76517">
        <ele>95.79</ele>
        <time>2011-05-30T13:09:06Z</time>
      </trkpt>
      <trkpt lat="43.25233" lon="2.7652">
        <ele>96.27</ele>
        <time>2011-05-30T13:09:10Z</time>
      </trkpt>
      <trkpt lat="43.25239" lon="2.76525">
        <ele>96.75</ele>
        <time>2011-05-30T13:09:13Z</time>
      </trkpt>
      <trkpt lat="43.25248" lon="2.76531">
        <ele>97.71</ele>
        <time>2011-05-30T13:09:17Z</time>
      </trkpt>
      <trkpt lat="43.2525" lon="2.76533">
        <ele>98.67</ele>
        <time>2011-05-30T13:09:20Z</time>
      </trkpt>
      <trkpt lat="43.25251" lon="2.76533">
        <ele>99.15</ele>
        <time>2011-05-30T13:09:21Z</time>
      </trkpt>
      <trkpt lat="43.25254" lon="2.76531">
        <ele>100.11</ele>
        <time>2011-05-30T13:09:25Z</time>
      </trkpt>
      <trkpt lat="43.25259" lon="2.76531">
        <ele>102.52</ele>
        <time>2011-05-30T13:09:31Z</time>
      </trkpt>
      <trkpt lat="43.2526" lon="2.76535">
        <ele>102.52</ele>
        <time>2011-05-30T13:09:43Z</time>
      </trkpt>
      <trkpt lat="43.25261" lon="2.76536">
        <ele>102.52</ele>
        <time>2011-05-30T13:10:02Z</time>
      </trkpt>
      <trkpt lat="43.2526" lon="2.76536">
        <ele>102.52</ele>
        <time>2011-05-30T13:10:16Z</time>
      </trkpt>
      <trkpt lat="43.25261" lon="2.76536">
        <ele>102.52</ele>
        <time>2011-05-30T13:10:22Z</time>
      </trkpt>
      <trkpt lat="43.25263" lon="2.76537">
        <ele>103</ele>
        <time>2011-05-30T13:10:24Z</time>
      </trkpt>
      <trkpt lat="43.25265" lon="2.76538">
        <ele>103.48</ele>
        <time>2011-05-30T13:10:26Z</time>
      </trkpt>
      <trkpt lat="43.25266" lon="2.76541">
        <ele>103.96</ele>
        <time>2011-05-30T13:10:29Z</time>
      </trkpt>
      <trkpt lat="43.25269" lon="2.76546">
        <ele>103.96</ele>
        <time>2011-05-30T13:10:37Z</time>
      </trkpt>
      <trkpt lat="43.25272" lon="2.76556">
        <ele>104.44</ele>
        <time>2011-05-30T13:10:47Z</time>
      </trkpt>
      <trkpt lat="43.25278" lon="2.76564">
        <ele>104.92</ele>
        <time>2011-05-30T13:10:59Z</time>
      </trkpt>
      <trkpt lat="43.25289" lon="2.76579">
        <ele>104.92</ele>
        <time>2011-05-30T13:11:14Z</time>
      </trkpt>
      <trkpt lat="43.25293" lon="2.7659">
        <ele>104.92</ele>
        <time>2011-05-30T13:11:25Z</time>
      </trkpt>
      <trkpt lat="43.25297" lon="2.76596">
        <ele>104.92</ele>
        <time>2011-05-30T13:11:39Z</time>
      </trkpt>
      <trkpt lat="43.25297" lon="2.766">
        <ele>104.44</ele>
        <time>2011-05-30T13:11:53Z</time>
      </trkpt>
      <trkpt lat="43.25298" lon="2.76608">
        <ele>103.96</ele>
        <time>2011-05-30T13:12:04Z</time>
      </trkpt>
      <trkpt lat="43.25302" lon="2.76617">
        <ele>104.44</ele>
        <time>2011-05-30T13:12:16Z</time>
      </trkpt>
      <trkpt lat="43.25304" lon="2.76624">
        <ele>103.96</ele>
        <time>2011-05-30T13:12:31Z</time>
      </trkpt>
      <trkpt lat="43.25303" lon="2.76624">
        <ele>103.96</ele>
        <time>2011-05-30T13:12:54Z</time>
      </trkpt>
      <trkpt lat="43.25303" lon="2.76627">
        <ele>103.96</ele>
        <time>2011-05-30T13:13:03Z</time>
      </trkpt>
      <trkpt lat="43.25306" lon="2.7664">
        <ele>102.04</ele>
        <time>2011-05-30T13:13:15Z</time>
      </trkpt>
      <trkpt lat="43.25307" lon="2.76643">
        <ele>101.56</ele>
        <time>2011-05-30T13:13:25Z</time>
      </trkpt>
      <trkpt lat="43.25306" lon="2.7664">
        <ele>102.04</ele>
        <time>2011-05-30T13:13:39Z</time>
      </trkpt>
      <trkpt lat="43.25306" lon="2.76641">
        <ele>102.04</ele>
        <time>2011-05-30T13:14:15Z</time>
      </trkpt>
      <trkpt lat="43.25306" lon="2.76641">
        <ele>102.04</ele>
        <time>2011-05-30T13:14:40Z</time>
      </trkpt>
      <trkpt lat="43.25307" lon="2.76643">
        <ele>102.04</ele>
        <time>2011-05-30T13:14:53Z</time>
      </trkpt>
      <trkpt lat="43.25307" lon="2.76643">
        <ele>102.04</ele>
        <time>2011-05-30T13:15:18Z</time>
      </trkpt>
      <trkpt lat="43.25311" lon="2.76654">
        <ele>101.56</ele>
        <time>2011-05-30T13:15:45Z</time>
      </trkpt>
      <trkpt lat="43.25314" lon="2.76658">
        <ele>101.56</ele>
        <time>2011-05-30T13:15:48Z</time>
      </trkpt>
      <trkpt lat="43.25322" lon="2.76673">
        <ele>101.56</ele>
        <time>2011-05-30T13:16:01Z</time>
      </trkpt>
      <trkpt lat="43.25326" lon="2.76679">
        <ele>102.04</ele>
        <time>2011-05-30T13:16:06Z</time>
      </trkpt>
      <trkpt lat="43.25331" lon="2.76695">
        <ele>101.56</ele>
        <time>2011-05-30T13:16:20Z</time>
      </trkpt>
      <trkpt lat="43.25335" lon="2.76703">
        <ele>101.08</ele>
        <time>2011-05-30T13:16:31Z</time>
      </trkpt>
      <trkpt lat="43.25338" lon="2.76714">
        <ele>101.56</ele>
        <time>2011-05-30T13:16:45Z</time>
      </trkpt>
      <trkpt lat="43.25346" lon="2.76722">
        <ele>101.56</ele>
        <time>2011-05-30T13:17:00Z</time>
      </trkpt>
      <trkpt lat="43.25355" lon="2.76728">
        <ele>101.08</ele>
        <time>2011-05-30T13:17:14Z</time>
      </trkpt>
      <trkpt lat="43.25364" lon="2.76735">
        <ele>101.08</ele>
        <time>2011-05-30T13:17:27Z</time>
      </trkpt>
      <trkpt lat="43.25367" lon="2.76739">
        <ele>101.56</ele>
        <time>2011-05-30T13:17:41Z</time>
      </trkpt>
      <trkpt lat="43.25371" lon="2.76742">
        <ele>102.52</ele>
        <time>2011-05-30T13:17:49Z</time>
      </trkpt>
      <trkpt lat="43.25374" lon="2.76743">
        <ele>102.04</ele>
        <time>2011-05-30T13:17:51Z</time>
      </trkpt>
      <trkpt lat="43.25379" lon="2.76743">
        <ele>102.52</ele>
        <time>2011-05-30T13:17:58Z</time>
      </trkpt>
      <trkpt lat="43.25383" lon="2.76746">
        <ele>103</ele>
        <time>2011-05-30T13:18:02Z</time>
      </trkpt>
      <trkpt lat="43.25392" lon="2.76756">
        <ele>103</ele>
        <time>2011-05-30T13:18:12Z</time>
      </trkpt>
      <trkpt lat="43.25393" lon="2.76774">
        <ele>101.56</ele>
        <time>2011-05-30T13:18:27Z</time>
      </trkpt>
      <trkpt lat="43.25392" lon="2.76782">
        <ele>101.08</ele>
        <time>2011-05-30T13:18:42Z</time>
      </trkpt>
      <trkpt lat="43.25395" lon="2.76785">
        <ele>100.6</ele>
        <time>2011-05-30T13:18:56Z</time>
      </trkpt>
      <trkpt lat="43.25395" lon="2.7679">
        <ele>99.63</ele>
        <time>2011-05-30T13:19:08Z</time>
      </trkpt>
      <trkpt lat="43.25396" lon="2.76792">
        <ele>99.15</ele>
        <time>2011-05-30T13:19:25Z</time>
      </trkpt>
      <trkpt lat="43.25398" lon="2.76798">
        <ele>99.15</ele>
        <time>2011-05-30T13:19:34Z</time>
      </trkpt>
      <trkpt lat="43.25397" lon="2.76799">
        <ele>99.15</ele>
        <time>2011-05-30T13:19:35Z</time>
      </trkpt>
      <trkpt lat="43.25404" lon="2.76808">
        <ele>98.19</ele>
        <time>2011-05-30T13:19:49Z</time>
      </trkpt>
      <trkpt lat="43.25404" lon="2.76809">
        <ele>97.71</ele>
        <time>2011-05-30T13:19:56Z</time>
      </trkpt>
      <trkpt lat="43.25413" lon="2.76827">
        <ele>95.79</ele>
        <time>2011-05-30T13:20:09Z</time>
      </trkpt>
      <trkpt lat="43.25426" lon="2.76845">
        <ele>94.83</ele>
        <time>2011-05-30T13:20:23Z</time>
      </trkpt>
      <trkpt lat="43.25427" lon="2.76847">
        <ele>94.35</ele>
        <time>2011-05-30T13:20:25Z</time>
      </trkpt>
      <trkpt lat="43.25432" lon="2.76858">
        <ele>94.83</ele>
        <time>2011-05-30T13:20:38Z</time>
      </trkpt>
      <trkpt lat="43.25435" lon="2.76863">
        <ele>94.83</ele>
        <time>2011-05-30T13:20:42Z</time>
      </trkpt>
      <trkpt lat="43.25441" lon="2.76869">
        <ele>93.87</ele>
        <time>2011-05-30T13:20:49Z</time>
      </trkpt>
      <trkpt lat="43.25449" lon="2.76881">
        <ele>92.9</ele>
        <time>2011-05-30T13:21:02Z</time>
      </trkpt>
      <trkpt lat="43.25457" lon="2.76881">
        <ele>94.35</ele>
        <time>2011-05-30T13:21:15Z</time>
      </trkpt>
      <trkpt lat="43.25465" lon="2.76879">
        <ele>94.83</ele>
        <time>2011-05-30T13:21:27Z</time>
      </trkpt>
      <trkpt lat="43.25476" lon="2.76878">
        <ele>95.31</ele>
        <time>2011-05-30T13:21:35Z</time>
      </trkpt>
      <trkpt lat="43.25487" lon="2.76869">
        <ele>96.75</ele>
        <time>2011-05-30T13:21:48Z</time>
      </trkpt>
      <trkpt lat="43.25492" lon="2.76862">
        <ele>98.19</ele>
        <time>2011-05-30T13:22:01Z</time>
      </trkpt>
      <trkpt lat="43.25499" lon="2.76862">
        <ele>98.67</ele>
        <time>2011-05-30T13:22:17Z</time>
      </trkpt>
      <trkpt lat="43.25501" lon="2.76863">
        <ele>100.11</ele>
        <time>2011-05-30T13:22:21Z</time>
      </trkpt>
      <trkpt lat="43.25503" lon="2.76862">
        <ele>100.11</ele>
        <time>2011-05-30T13:22:23Z</time>
      </trkpt>
      <trkpt lat="43.25516" lon="2.7685">
        <ele>100.6</ele>
        <time>2011-05-30T13:22:39Z</time>
      </trkpt>
      <trkpt lat="43.2553" lon="2.76839">
        <ele>100.11</ele>
        <time>2011-05-30T13:22:54Z</time>
      </trkpt>
      <trkpt lat="43.25539" lon="2.76834">
        <ele>100.11</ele>
        <time>2011-05-30T13:23:03Z</time>
      </trkpt>
      <trkpt lat="43.25545" lon="2.76831">
        <ele>100.6</ele>
        <time>2011-05-30T13:23:09Z</time>
      </trkpt>
      <trkpt lat="43.2555" lon="2.76829">
        <ele>100.6</ele>
        <time>2011-05-30T13:23:15Z</time>
      </trkpt>
      <trkpt lat="43.2556" lon="2.76826">
        <ele>100.6</ele>
        <time>2011-05-30T13:23:25Z</time>
      </trkpt>
      <trkpt lat="43.25574" lon="2.76819">
        <ele>102.04</ele>
        <time>2011-05-30T13:23:40Z</time>
      </trkpt>
      <trkpt lat="43.2558" lon="2.76815">
        <ele>102.52</ele>
        <time>2011-05-30T13:23:51Z</time>
      </trkpt>
      <trkpt lat="43.25582" lon="2.76814">
        <ele>103</ele>
        <time>2011-05-30T13:23:53Z</time>
      </trkpt>
      <trkpt lat="43.25596" lon="2.76805">
        <ele>104.44</ele>
        <time>2011-05-30T13:24:09Z</time>
      </trkpt>
      <trkpt lat="43.25606" lon="2.76797">
        <ele>105.88</ele>
        <time>2011-05-30T13:24:23Z</time>
      </trkpt>
      <trkpt lat="43.25612" lon="2.76787">
        <ele>106.36</ele>
        <time>2011-05-30T13:24:35Z</time>
      </trkpt>
      <trkpt lat="43.25616" lon="2.76783">
        <ele>107.32</ele>
        <time>2011-05-30T13:24:48Z</time>
      </trkpt>
      <trkpt lat="43.25617" lon="2.76781">
        <ele>107.81</ele>
        <time>2011-05-30T13:25:03Z</time>
      </trkpt>
      <trkpt lat="43.25617" lon="2.76778">
        <ele>107.81</ele>
        <time>2011-05-30T13:25:18Z</time>
      </trkpt>
      <trkpt lat="43.25617" lon="2.76776">
        <ele>108.29</ele>
        <time>2011-05-30T13:25:25Z</time>
      </trkpt>
      <trkpt lat="43.25617" lon="2.76775">
        <ele>108.29</ele>
        <time>2011-05-30T13:25:27Z</time>
      </trkpt>
      <trkpt lat="43.25618" lon="2.76769">
        <ele>108.77</ele>
        <time>2011-05-30T13:25:31Z</time>
      </trkpt>
      <trkpt lat="43.25616" lon="2.76753">
        <ele>108.77</ele>
        <time>2011-05-30T13:25:44Z</time>
      </trkpt>
      <trkpt lat="43.25617" lon="2.76748">
        <ele>109.25</ele>
        <time>2011-05-30T13:25:59Z</time>
      </trkpt>
      <trkpt lat="43.2562" lon="2.76731">
        <ele>110.69</ele>
        <time>2011-05-30T13:26:14Z</time>
      </trkpt>
      <trkpt lat="43.25625" lon="2.76717">
        <ele>111.65</ele>
        <time>2011-05-30T13:26:29Z</time>
      </trkpt>
      <trkpt lat="43.25628" lon="2.7671">
        <ele>112.61</ele>
        <time>2011-05-30T13:26:46Z</time>
      </trkpt>
      <trkpt lat="43.25633" lon="2.76698">
        <ele>114.05</ele>
        <time>2011-05-30T13:27:00Z</time>
      </trkpt>
      <trkpt lat="43.25637" lon="2.76693">
        <ele>115.01</ele>
        <time>2011-05-30T13:27:09Z</time>
      </trkpt>
      <trkpt lat="43.25644" lon="2.76689">
        <ele>113.57</ele>
        <time>2011-05-30T13:27:19Z</time>
      </trkpt>
      <trkpt lat="43.25645" lon="2.76685">
        <ele>113.09</ele>
        <time>2011-05-30T13:27:22Z</time>
      </trkpt>
      <trkpt lat="43.25642" lon="2.76664">
        <ele>113.57</ele>
        <time>2011-05-30T13:27:37Z</time>
      </trkpt>
      <trkpt lat="43.25637" lon="2.76644">
        <ele>115.01</ele>
        <time>2011-05-30T13:27:53Z</time>
      </trkpt>
      <trkpt lat="43.25632" lon="2.76632">
        <ele>115.5</ele>
        <time>2011-05-30T13:28:03Z</time>
      </trkpt>
      <trkpt lat="43.25628" lon="2.76617">
        <ele>116.46</ele>
        <time>2011-05-30T13:28:17Z</time>
      </trkpt>
      <trkpt lat="43.25628" lon="2.76615">
        <ele>116.46</ele>
        <time>2011-05-30T13:28:18Z</time>
      </trkpt>
      <trkpt lat="43.25623" lon="2.76596">
        <ele>116.94</ele>
        <time>2011-05-30T13:28:32Z</time>
      </trkpt>
      <trkpt lat="43.25621" lon="2.76589">
        <ele>116.94</ele>
        <time>2011-05-30T13:28:37Z</time>
      </trkpt>
      <trkpt lat="43.25621" lon="2.76584">
        <ele>116.94</ele>
        <time>2011-05-30T13:28:41Z</time>
      </trkpt>
      <trkpt lat="43.2562" lon="2.76576">
        <ele>117.42</ele>
        <time>2011-05-30T13:28:46Z</time>
      </trkpt>
      <trkpt lat="43.2562" lon="2.76571">
        <ele>117.9</ele>
        <time>2011-05-30T13:28:50Z</time>
      </trkpt>
      <trkpt lat="43.25618" lon="2.76554">
        <ele>117.9</ele>
        <time>2011-05-30T13:29:02Z</time>
      </trkpt>
      <trkpt lat="43.25618" lon="2.76552">
        <ele>117.9</ele>
        <time>2011-05-30T13:29:04Z</time>
      </trkpt>
      <trkpt lat="43.25618" lon="2.7653">
        <ele>118.38</ele>
        <time>2011-05-30T13:29:19Z</time>
      </trkpt>
      <trkpt lat="43.25619" lon="2.76525">
        <ele>118.38</ele>
        <time>2011-05-30T13:29:23Z</time>
      </trkpt>
      <trkpt lat="43.2562" lon="2.76506">
        <ele>118.86</ele>
        <time>2011-05-30T13:29:37Z</time>
      </trkpt>
      <trkpt lat="43.25619" lon="2.76496">
        <ele>119.34</ele>
        <time>2011-05-30T13:29:44Z</time>
      </trkpt>
      <trkpt lat="43.25619" lon="2.76484">
        <ele>118.86</ele>
        <time>2011-05-30T13:29:50Z</time>
      </trkpt>
      <trkpt lat="43.25621" lon="2.76476">
        <ele>117.9</ele>
        <time>2011-05-30T13:29:56Z</time>
      </trkpt>
      <trkpt lat="43.25623" lon="2.76468">
        <ele>117.42</ele>
        <time>2011-05-30T13:30:01Z</time>
      </trkpt>
      <trkpt lat="43.25624" lon="2.76459">
        <ele>116.46</ele>
        <time>2011-05-30T13:30:07Z</time>
      </trkpt>
      <trkpt lat="43.25625" lon="2.76456">
        <ele>116.46</ele>
        <time>2011-05-30T13:30:10Z</time>
      </trkpt>
      <trkpt lat="43.25631" lon="2.76431">
        <ele>115.01</ele>
        <time>2011-05-30T13:30:25Z</time>
      </trkpt>
      <trkpt lat="43.25632" lon="2.76428">
        <ele>114.53</ele>
        <time>2011-05-30T13:30:28Z</time>
      </trkpt>
      <trkpt lat="43.25633" lon="2.76425">
        <ele>114.53</ele>
        <time>2011-05-30T13:30:30Z</time>
      </trkpt>
      <trkpt lat="43.25637" lon="2.76406">
        <ele>113.09</ele>
        <time>2011-05-30T13:30:44Z</time>
      </trkpt>
      <trkpt lat="43.2564" lon="2.76402">
        <ele>113.09</ele>
        <time>2011-05-30T13:30:47Z</time>
      </trkpt>
      <trkpt lat="43.25645" lon="2.76383">
        <ele>111.65</ele>
        <time>2011-05-30T13:30:59Z</time>
      </trkpt>
      <trkpt lat="43.2565" lon="2.76363">
        <ele>111.17</ele>
        <time>2011-05-30T13:31:11Z</time>
      </trkpt>
      <trkpt lat="43.2565" lon="2.76362">
        <ele>110.69</ele>
        <time>2011-05-30T13:31:12Z</time>
      </trkpt>
      <trkpt lat="43.25657" lon="2.76343">
        <ele>110.21</ele>
        <time>2011-05-30T13:31:26Z</time>
      </trkpt>
      <trkpt lat="43.25659" lon="2.7634">
        <ele>110.21</ele>
        <time>2011-05-30T13:31:29Z</time>
      </trkpt>
      <trkpt lat="43.25665" lon="2.76328">
        <ele>109.73</ele>
        <time>2011-05-30T13:31:38Z</time>
      </trkpt>
      <trkpt lat="43.25667" lon="2.76324">
        <ele>109.25</ele>
        <time>2011-05-30T13:31:42Z</time>
      </trkpt>
      <trkpt lat="43.2567" lon="2.76302">
        <ele>109.25</ele>
        <time>2011-05-30T13:31:56Z</time>
      </trkpt>
      <trkpt lat="43.25671" lon="2.76285">
        <ele>108.29</ele>
        <time>2011-05-30T13:32:11Z</time>
      </trkpt>
      <trkpt lat="43.25673" lon="2.76262">
        <ele>108.29</ele>
        <time>2011-05-30T13:32:26Z</time>
      </trkpt>
      <trkpt lat="43.25674" lon="2.7625">
        <ele>107.81</ele>
        <time>2011-05-30T13:32:36Z</time>
      </trkpt>
      <trkpt lat="43.25672" lon="2.76234">
        <ele>107.81</ele>
        <time>2011-05-30T13:32:47Z</time>
      </trkpt>
      <trkpt lat="43.25673" lon="2.76227">
        <ele>107.81</ele>
        <time>2011-05-30T13:32:52Z</time>
      </trkpt>
      <trkpt lat="43.25673" lon="2.76223">
        <ele>107.81</ele>
        <time>2011-05-30T13:32:54Z</time>
      </trkpt>
      <trkpt lat="43.25674" lon="2.76218">
        <ele>107.81</ele>
        <time>2011-05-30T13:32:58Z</time>
      </trkpt>
      <trkpt lat="43.25676" lon="2.76201">
        <ele>107.81</ele>
        <time>2011-05-30T13:33:09Z</time>
      </trkpt>
      <trkpt lat="43.25676" lon="2.76198">
        <ele>107.81</ele>
        <time>2011-05-30T13:33:11Z</time>
      </trkpt>
      <trkpt lat="43.25679" lon="2.76185">
        <ele>107.81</ele>
        <time>2011-05-30T13:33:20Z</time>
      </trkpt>
      <trkpt lat="43.25681" lon="2.76177">
        <ele>107.32</ele>
        <time>2011-05-30T13:33:25Z</time>
      </trkpt>
      <trkpt lat="43.25688" lon="2.76152">
        <ele>107.32</ele>
        <time>2011-05-30T13:33:42Z</time>
      </trkpt>
      <trkpt lat="43.25693" lon="2.76135">
        <ele>107.32</ele>
        <time>2011-05-30T13:33:55Z</time>
      </trkpt>
      <trkpt lat="43.25699" lon="2.76115">
        <ele>106.84</ele>
        <time>2011-05-30T13:34:10Z</time>
      </trkpt>
      <trkpt lat="43.25699" lon="2.76113">
        <ele>106.36</ele>
        <time>2011-05-30T13:34:23Z</time>
      </trkpt>
      <trkpt lat="43.25699" lon="2.76113">
        <ele>105.88</ele>
        <time>2011-05-30T13:34:51Z</time>
      </trkpt>
      <trkpt lat="43.25699" lon="2.76112">
        <ele>105.88</ele>
        <time>2011-05-30T13:35:22Z</time>
      </trkpt>
      <trkpt lat="43.25702" lon="2.76107">
        <ele>105.88</ele>
        <time>2011-05-30T13:35:26Z</time>
      </trkpt>
      <trkpt lat="43.25704" lon="2.76104">
        <ele>105.88</ele>
        <time>2011-05-30T13:35:28Z</time>
      </trkpt>
      <trkpt lat="43.25706" lon="2.76099">
        <ele>105.88</ele>
        <time>2011-05-30T13:35:31Z</time>
      </trkpt>
      <trkpt lat="43.25716" lon="2.76087">
        <ele>104.92</ele>
        <time>2011-05-30T13:35:41Z</time>
      </trkpt>
      <trkpt lat="43.25727" lon="2.76074">
        <ele>104.44</ele>
        <time>2011-05-30T13:35:51Z</time>
      </trkpt>
      <trkpt lat="43.2573" lon="2.76065">
        <ele>104.44</ele>
        <time>2011-05-30T13:35:58Z</time>
      </trkpt>
      <trkpt lat="43.25737" lon="2.76058">
        <ele>103.96</ele>
        <time>2011-05-30T13:36:05Z</time>
      </trkpt>
      <trkpt lat="43.25745" lon="2.76055">
        <ele>104.92</ele>
        <time>2011-05-30T13:36:23Z</time>
      </trkpt>
      <trkpt lat="43.25746" lon="2.76056">
        <ele>104.44</ele>
        <time>2011-05-30T13:36:39Z</time>
      </trkpt>
      <trkpt lat="43.25751" lon="2.76049">
        <ele>103.96</ele>
        <time>2011-05-30T13:36:54Z</time>
      </trkpt>
      <trkpt lat="43.25755" lon="2.76036">
        <ele>102.04</ele>
        <time>2011-05-30T13:37:09Z</time>
      </trkpt>
      <trkpt lat="43.25756" lon="2.76034">
        <ele>102.52</ele>
        <time>2011-05-30T13:37:13Z</time>
      </trkpt>
      <trkpt lat="43.25759" lon="2.76011">
        <ele>101.08</ele>
        <time>2011-05-30T13:37:29Z</time>
      </trkpt>
      <trkpt lat="43.2576" lon="2.76008">
        <ele>105.4</ele>
        <time>2011-05-30T13:37:32Z</time>
      </trkpt>
      <trkpt lat="43.2576" lon="2.76006">
        <ele>105.4</ele>
        <time>2011-05-30T13:37:33Z</time>
      </trkpt>
      <trkpt lat="43.25761" lon="2.76004">
        <ele>102.04</ele>
        <time>2011-05-30T13:37:35Z</time>
      </trkpt>
      <trkpt lat="43.25764" lon="2.75991">
        <ele>100.11</ele>
        <time>2011-05-30T13:37:46Z</time>
      </trkpt>
      <trkpt lat="43.25767" lon="2.75979">
        <ele>101.08</ele>
        <time>2011-05-30T13:37:57Z</time>
      </trkpt>
      <trkpt lat="43.25767" lon="2.75977">
        <ele>101.08</ele>
        <time>2011-05-30T13:37:58Z</time>
      </trkpt>
      <trkpt lat="43.25769" lon="2.75963">
        <ele>101.08</ele>
        <time>2011-05-30T13:38:10Z</time>
      </trkpt>
      <trkpt lat="43.25771" lon="2.75951">
        <ele>101.08</ele>
        <time>2011-05-30T13:38:21Z</time>
      </trkpt>
      <trkpt lat="43.25774" lon="2.75936">
        <ele>101.08</ele>
        <time>2011-05-30T13:38:34Z</time>
      </trkpt>
      <trkpt lat="43.25774" lon="2.75931">
        <ele>101.08</ele>
        <time>2011-05-30T13:38:38Z</time>
      </trkpt>
      <trkpt lat="43.25777" lon="2.75911">
        <ele>102.04</ele>
        <time>2011-05-30T13:38:55Z</time>
      </trkpt>
      <trkpt lat="43.25779" lon="2.75896">
        <ele>102.52</ele>
        <time>2011-05-30T13:39:07Z</time>
      </trkpt>
      <trkpt lat="43.25779" lon="2.75892">
        <ele>103</ele>
        <time>2011-05-30T13:39:11Z</time>
      </trkpt>
      <trkpt lat="43.25783" lon="2.75883">
        <ele>103.48</ele>
        <time>2011-05-30T13:39:24Z</time>
      </trkpt>
      <trkpt lat="43.25784" lon="2.75883">
        <ele>103.48</ele>
        <time>2011-05-30T13:39:34Z</time>
      </trkpt>
      <trkpt lat="43.25784" lon="2.75883">
        <ele>103.48</ele>
        <time>2011-05-30T13:39:41Z</time>
      </trkpt>
      <trkpt lat="43.25797" lon="2.75885">
        <ele>103</ele>
        <time>2011-05-30T13:39:52Z</time>
      </trkpt>
      <trkpt lat="43.258" lon="2.75886">
        <ele>103.48</ele>
        <time>2011-05-30T13:39:55Z</time>
      </trkpt>
      <trkpt lat="43.25804" lon="2.75888">
        <ele>103</ele>
        <time>2011-05-30T13:40:00Z</time>
      </trkpt>
      <trkpt lat="43.25808" lon="2.75889">
        <ele>102.52</ele>
        <time>2011-05-30T13:40:04Z</time>
      </trkpt>
      <trkpt lat="43.25811" lon="2.75889">
        <ele>102.52</ele>
        <time>2011-05-30T13:40:07Z</time>
      </trkpt>
      <trkpt lat="43.2582" lon="2.75892">
        <ele>102.52</ele>
        <time>2011-05-30T13:40:15Z</time>
      </trkpt>
      <trkpt lat="43.25824" lon="2.75893">
        <ele>102.04</ele>
        <time>2011-05-30T13:40:18Z</time>
      </trkpt>
      <trkpt lat="43.25832" lon="2.75882">
        <ele>103.96</ele>
        <time>2011-05-30T13:40:32Z</time>
      </trkpt>
      <trkpt lat="43.25832" lon="2.75869">
        <ele>105.4</ele>
        <time>2011-05-30T13:40:45Z</time>
      </trkpt>
      <trkpt lat="43.2583" lon="2.7586">
        <ele>105.88</ele>
        <time>2011-05-30T13:40:58Z</time>
      </trkpt>
      <trkpt lat="43.25835" lon="2.75844">
        <ele>106.36</ele>
        <time>2011-05-30T13:41:11Z</time>
      </trkpt>
      <trkpt lat="43.25839" lon="2.7584">
        <ele>106.36</ele>
        <time>2011-05-30T13:41:16Z</time>
      </trkpt>
      <trkpt lat="43.25843" lon="2.75827">
        <ele>104.92</ele>
        <time>2011-05-30T13:41:29Z</time>
      </trkpt>
      <trkpt lat="43.25847" lon="2.7581">
        <ele>103.96</ele>
        <time>2011-05-30T13:41:44Z</time>
      </trkpt>
      <trkpt lat="43.25859" lon="2.75793">
        <ele>104.44</ele>
        <time>2011-05-30T13:41:59Z</time>
      </trkpt>
      <trkpt lat="43.2587" lon="2.75779">
        <ele>103.96</ele>
        <time>2011-05-30T13:42:13Z</time>
      </trkpt>
      <trkpt lat="43.2588" lon="2.75768">
        <ele>103.48</ele>
        <time>2011-05-30T13:42:28Z</time>
      </trkpt>
      <trkpt lat="43.25881" lon="2.75767">
        <ele>103</ele>
        <time>2011-05-30T13:42:29Z</time>
      </trkpt>
      <trkpt lat="43.25888" lon="2.7575">
        <ele>102.52</ele>
        <time>2011-05-30T13:42:44Z</time>
      </trkpt>
      <trkpt lat="43.25895" lon="2.75735">
        <ele>101.56</ele>
        <time>2011-05-30T13:42:57Z</time>
      </trkpt>
      <trkpt lat="43.25906" lon="2.75717">
        <ele>101.08</ele>
        <time>2011-05-30T13:43:13Z</time>
      </trkpt>
      <trkpt lat="43.25914" lon="2.75696">
        <ele>101.08</ele>
        <time>2011-05-30T13:43:30Z</time>
      </trkpt>
      <trkpt lat="43.25926" lon="2.75683">
        <ele>99.63</ele>
        <time>2011-05-30T13:43:46Z</time>
      </trkpt>
      <trkpt lat="43.25937" lon="2.75664">
        <ele>99.63</ele>
        <time>2011-05-30T13:44:01Z</time>
      </trkpt>
      <trkpt lat="43.25942" lon="2.75654">
        <ele>98.67</ele>
        <time>2011-05-30T13:44:11Z</time>
      </trkpt>
      <trkpt lat="43.2595" lon="2.75639">
        <ele>96.75</ele>
        <time>2011-05-30T13:44:27Z</time>
      </trkpt>
      <trkpt lat="43.25956" lon="2.75625">
        <ele>95.31</ele>
        <time>2011-05-30T13:44:40Z</time>
      </trkpt>
      <trkpt lat="43.25958" lon="2.75611">
        <ele>95.79</ele>
        <time>2011-05-30T13:44:54Z</time>
      </trkpt>
      <trkpt lat="43.2596" lon="2.75608">
        <ele>94.83</ele>
        <time>2011-05-30T13:44:57Z</time>
      </trkpt>
      <trkpt lat="43.25966" lon="2.75586">
        <ele>95.31</ele>
        <time>2011-05-30T13:45:13Z</time>
      </trkpt>
      <trkpt lat="43.25968" lon="2.75578">
        <ele>95.31</ele>
        <time>2011-05-30T13:45:18Z</time>
      </trkpt>
      <trkpt lat="43.25971" lon="2.75555">
        <ele>94.35</ele>
        <time>2011-05-30T13:45:35Z</time>
      </trkpt>
      <trkpt lat="43.25973" lon="2.75535">
        <ele>93.87</ele>
        <time>2011-05-30T13:45:46Z</time>
      </trkpt>
      <trkpt lat="43.25977" lon="2.75515">
        <ele>92.42</ele>
        <time>2011-05-30T13:45:59Z</time>
      </trkpt>
      <trkpt lat="43.2598" lon="2.75491">
        <ele>92.42</ele>
        <time>2011-05-30T13:46:15Z</time>
      </trkpt>
      <trkpt lat="43.25985" lon="2.75473">
        <ele>90.98</ele>
        <time>2011-05-30T13:46:30Z</time>
      </trkpt>
      <trkpt lat="43.25991" lon="2.75458">
        <ele>90.5</ele>
        <time>2011-05-30T13:46:44Z</time>
      </trkpt>
      <trkpt lat="43.25995" lon="2.75434">
        <ele>90.02</ele>
        <time>2011-05-30T13:47:00Z</time>
      </trkpt>
      <trkpt lat="43.26003" lon="2.75414">
        <ele>89.54</ele>
        <time>2011-05-30T13:47:15Z</time>
      </trkpt>
      <trkpt lat="43.26004" lon="2.75407">
        <ele>89.06</ele>
        <time>2011-05-30T13:47:19Z</time>
      </trkpt>
      <trkpt lat="43.26012" lon="2.75385">
        <ele>87.62</ele>
        <time>2011-05-30T13:47:36Z</time>
      </trkpt>
      <trkpt lat="43.26019" lon="2.75365">
        <ele>86.66</ele>
        <time>2011-05-30T13:47:51Z</time>
      </trkpt>
      <trkpt lat="43.26019" lon="2.75365">
        <ele>86.18</ele>
        <time>2011-05-30T13:47:52Z</time>
      </trkpt>
      <trkpt lat="43.26024" lon="2.75349">
        <ele>83.77</ele>
        <time>2011-05-30T13:48:01Z</time>
      </trkpt>
      <trkpt lat="43.26024" lon="2.75348">
        <ele>83.77</ele>
        <time>2011-05-30T13:48:02Z</time>
      </trkpt>
      <trkpt lat="43.26026" lon="2.75342">
        <ele>85.69</ele>
        <time>2011-05-30T13:48:05Z</time>
      </trkpt>
      <trkpt lat="43.26033" lon="2.75321">
        <ele>83.77</ele>
        <time>2011-05-30T13:48:20Z</time>
      </trkpt>
      <trkpt lat="43.26036" lon="2.75306">
        <ele>83.29</ele>
        <time>2011-05-30T13:48:34Z</time>
      </trkpt>
      <trkpt lat="43.26039" lon="2.75284">
        <ele>84.25</ele>
        <time>2011-05-30T13:48:49Z</time>
      </trkpt>
      <trkpt lat="43.26038" lon="2.75268">
        <ele>81.85</ele>
        <time>2011-05-30T13:49:03Z</time>
      </trkpt>
      <trkpt lat="43.26042" lon="2.75251">
        <ele>79.93</ele>
        <time>2011-05-30T13:49:17Z</time>
      </trkpt>
      <trkpt lat="43.26044" lon="2.75242">
        <ele>78.97</ele>
        <time>2011-05-30T13:49:24Z</time>
      </trkpt>
      <trkpt lat="43.26052" lon="2.75225">
        <ele>77.04</ele>
        <time>2011-05-30T13:49:38Z</time>
      </trkpt>
      <trkpt lat="43.26059" lon="2.75208">
        <ele>75.12</ele>
        <time>2011-05-30T13:49:53Z</time>
      </trkpt>
      <trkpt lat="43.26061" lon="2.75195">
        <ele>73.2</ele>
        <time>2011-05-30T13:50:08Z</time>
      </trkpt>
      <trkpt lat="43.26059" lon="2.75179">
        <ele>72.24</ele>
        <time>2011-05-30T13:50:20Z</time>
      </trkpt>
      <trkpt lat="43.26061" lon="2.75156">
        <ele>71.27</ele>
        <time>2011-05-30T13:50:35Z</time>
      </trkpt>
      <trkpt lat="43.26064" lon="2.75139">
        <ele>69.83</ele>
        <time>2011-05-30T13:50:51Z</time>
      </trkpt>
      <trkpt lat="43.26064" lon="2.75121">
        <ele>67.91</ele>
        <time>2011-05-30T13:51:08Z</time>
      </trkpt>
      <trkpt lat="43.26064" lon="2.75108">
        <ele>65.99</ele>
        <time>2011-05-30T13:51:23Z</time>
      </trkpt>
      <trkpt lat="43.2607" lon="2.75087">
        <ele>64.07</ele>
        <time>2011-05-30T13:51:39Z</time>
      </trkpt>
      <trkpt lat="43.2607" lon="2.7508">
        <ele>61.66</ele>
        <time>2011-05-30T13:51:54Z</time>
      </trkpt>
      <trkpt lat="43.2607" lon="2.75078">
        <ele>60.7</ele>
        <time>2011-05-30T13:52:08Z</time>
      </trkpt>
      <trkpt lat="43.26073" lon="2.75067">
        <ele>59.26</ele>
        <time>2011-05-30T13:52:21Z</time>
      </trkpt>
      <trkpt lat="43.26076" lon="2.75053">
        <ele>57.82</ele>
        <time>2011-05-30T13:52:33Z</time>
      </trkpt>
      <trkpt lat="43.26079" lon="2.75047">
        <ele>56.37</ele>
        <time>2011-05-30T13:52:43Z</time>
      </trkpt>
      <trkpt lat="43.26082" lon="2.75044">
        <ele>54.45</ele>
        <time>2011-05-30T13:52:46Z</time>
      </trkpt>
      <trkpt lat="43.26083" lon="2.75042">
        <ele>53.49</ele>
        <time>2011-05-30T13:52:47Z</time>
      </trkpt>
      <trkpt lat="43.26083" lon="2.75039">
        <ele>53.01</ele>
        <time>2011-05-30T13:52:49Z</time>
      </trkpt>
      <trkpt lat="43.2608" lon="2.7503">
        <ele>51.57</ele>
        <time>2011-05-30T13:53:02Z</time>
      </trkpt>
      <trkpt lat="43.26078" lon="2.75024">
        <ele>50.61</ele>
        <time>2011-05-30T13:53:14Z</time>
      </trkpt>
      <trkpt lat="43.26077" lon="2.75024">
        <ele>51.09</ele>
        <time>2011-05-30T13:53:15Z</time>
      </trkpt>
      <trkpt lat="43.26077" lon="2.75023">
        <ele>52.05</ele>
        <time>2011-05-30T13:53:31Z</time>
      </trkpt>
      <trkpt lat="43.26088" lon="2.75006">
        <ele>50.61</ele>
        <time>2011-05-30T13:53:47Z</time>
      </trkpt>
      <trkpt lat="43.26089" lon="2.75006">
        <ele>50.61</ele>
        <time>2011-05-30T13:53:59Z</time>
      </trkpt>
      <trkpt lat="43.26111" lon="2.74992">
        <ele>50.61</ele>
        <time>2011-05-30T13:54:20Z</time>
      </trkpt>
      <trkpt lat="43.26118" lon="2.74987">
        <ele>49.65</ele>
        <time>2011-05-30T13:54:36Z</time>
      </trkpt>
      <trkpt lat="43.26126" lon="2.74984">
        <ele>49.65</ele>
        <time>2011-05-30T13:54:54Z</time>
      </trkpt>
      <trkpt lat="43.26126" lon="2.74984">
        <ele>49.65</ele>
        <time>2011-05-30T13:55:15Z</time>
      </trkpt>
      <trkpt lat="43.26125" lon="2.74985">
        <ele>49.65</ele>
        <time>2011-05-30T13:55:37Z</time>
      </trkpt>
      <trkpt lat="43.26125" lon="2.74985">
        <ele>49.16</ele>
        <time>2011-05-30T13:55:52Z</time>
      </trkpt>
      <trkpt lat="43.26125" lon="2.74985">
        <ele>49.16</ele>
        <time>2011-05-30T13:56:12Z</time>
      </trkpt>
      <trkpt lat="43.26125" lon="2.74985">
        <ele>49.65</ele>
        <time>2011-05-30T13:56:26Z</time>
      </trkpt>
      <trkpt lat="43.26123" lon="2.74985">
        <ele>49.65</ele>
        <time>2011-05-30T13:56:38Z</time>
      </trkpt>
      <trkpt lat="43.26124" lon="2.74986">
        <ele>49.65</ele>
        <time>2011-05-30T13:56:55Z</time>
      </trkpt>
      <trkpt lat="43.26125" lon="2.74986">
        <ele>49.16</ele>
        <time>2011-05-30T13:56:57Z</time>
      </trkpt>
      <trkpt lat="43.26134" lon="2.74983">
        <ele>49.65</ele>
        <time>2011-05-30T13:57:09Z</time>
      </trkpt>
      <trkpt lat="43.26147" lon="2.74983">
        <ele>49.16</ele>
        <time>2011-05-30T13:57:24Z</time>
      </trkpt>
      <trkpt lat="43.26152" lon="2.74991">
        <ele>49.16</ele>
        <time>2011-05-30T13:57:33Z</time>
      </trkpt>
      <trkpt lat="43.26165" lon="2.74999">
        <ele>49.16</ele>
        <time>2011-05-30T13:57:47Z</time>
      </trkpt>
      <trkpt lat="43.26165" lon="2.74999">
        <ele>49.65</ele>
        <time>2011-05-30T13:57:48Z</time>
      </trkpt>
      <trkpt lat="43.26168" lon="2.75001">
        <ele>49.65</ele>
        <time>2011-05-30T13:57:50Z</time>
      </trkpt>
      <trkpt lat="43.2617" lon="2.75006">
        <ele>49.65</ele>
        <time>2011-05-30T13:57:53Z</time>
      </trkpt>
      <trkpt lat="43.26175" lon="2.75014">
        <ele>50.13</ele>
        <time>2011-05-30T13:58:06Z</time>
      </trkpt>
      <trkpt lat="43.26175" lon="2.75018">
        <ele>50.13</ele>
        <time>2011-05-30T13:58:11Z</time>
      </trkpt>
      <trkpt lat="43.26179" lon="2.75024">
        <ele>50.13</ele>
        <time>2011-05-30T13:58:17Z</time>
      </trkpt>
      <trkpt lat="43.26188" lon="2.75034">
        <ele>50.61</ele>
        <time>2011-05-30T13:58:30Z</time>
      </trkpt>
      <trkpt lat="43.2619" lon="2.75038">
        <ele>50.61</ele>
        <time>2011-05-30T13:58:35Z</time>
      </trkpt>
      <trkpt lat="43.26193" lon="2.7504">
        <ele>50.61</ele>
        <time>2011-05-30T13:58:38Z</time>
      </trkpt>
      <trkpt lat="43.26206" lon="2.75046">
        <ele>50.13</ele>
        <time>2011-05-30T13:58:51Z</time>
      </trkpt>
      <trkpt lat="43.26219" lon="2.75045">
        <ele>51.57</ele>
        <time>2011-05-30T13:59:03Z</time>
      </trkpt>
      <trkpt lat="43.26221" lon="2.75046">
        <ele>51.57</ele>
        <time>2011-05-30T13:59:10Z</time>
      </trkpt>
      <trkpt lat="43.26228" lon="2.75054">
        <ele>52.05</ele>
        <time>2011-05-30T13:59:20Z</time>
      </trkpt>
      <trkpt lat="43.26231" lon="2.75077">
        <ele>53.01</ele>
        <time>2011-05-30T13:59:35Z</time>
      </trkpt>
      <trkpt lat="43.26231" lon="2.7508">
        <ele>53.01</ele>
        <time>2011-05-30T13:59:37Z</time>
      </trkpt>
      <trkpt lat="43.2623" lon="2.751">
        <ele>53.97</ele>
        <time>2011-05-30T13:59:51Z</time>
      </trkpt>
      <trkpt lat="43.26229" lon="2.75112">
        <ele>53.97</ele>
        <time>2011-05-30T13:59:59Z</time>
      </trkpt>
      <trkpt lat="43.26226" lon="2.75121">
        <ele>54.45</ele>
        <time>2011-05-30T14:00:13Z</time>
      </trkpt>
      <trkpt lat="43.26225" lon="2.75124">
        <ele>54.93</ele>
        <time>2011-05-30T14:00:27Z</time>
      </trkpt>
      <trkpt lat="43.26224" lon="2.75124">
        <ele>54.45</ele>
        <time>2011-05-30T14:00:41Z</time>
      </trkpt>
      <trkpt lat="43.26224" lon="2.75124">
        <ele>54.93</ele>
        <time>2011-05-30T14:00:45Z</time>
      </trkpt>
      <trkpt lat="43.26224" lon="2.75124">
        <ele>53.97</ele>
        <time>2011-05-30T14:01:06Z</time>
      </trkpt>
      <trkpt lat="43.26228" lon="2.75122">
        <ele>54.45</ele>
        <time>2011-05-30T14:01:09Z</time>
      </trkpt>
    </trkseg>
  </trk>
</gpx>